<?xml version="1.0" encoding="UTF-8" standalone="no" ?>
<gpx xmlns="http://www.topografix.com/GPX/1/1" xmlns:xsi="http://www.w3.org/2001/XMLSchema-instance" xsi:schemaLocation="http://www.topografix.com/GPX/1/1 http://www.topografix.com/GPX/1/1/gpx.xsd" version="1.1" creator="VisuGPX - https://www.visugpx.com">
  <metadata>
    <name>83 - L - St Antonin</name>
    <desc><![CDATA[83 - L - St Antonin : vallon du Colledar 
2023-11-27]]></desc>
  </metadata>
  <trk>
    <name><![CDATA[St Antonin - vallon du Colledar 2023-11-27-01]]></name>
    <trkseg>
      <trkpt lat="43.5066" lon="6.28863">
        <ele>200.6</ele>
        <time>2023-11-27T07:57:08Z</time>
      </trkpt>
      <trkpt lat="43.50661" lon="6.28864">
        <ele>200.6</ele>
        <time>2023-11-27T07:57:09Z</time>
      </trkpt>
      <trkpt lat="43.50669" lon="6.2887">
        <ele>201.7</ele>
        <time>2023-11-27T07:57:59Z</time>
      </trkpt>
      <trkpt lat="43.50675" lon="6.2886">
        <ele>201.8</ele>
        <time>2023-11-27T07:58:06Z</time>
      </trkpt>
      <trkpt lat="43.50677" lon="6.28847">
        <ele>202.6</ele>
        <time>2023-11-27T07:58:18Z</time>
      </trkpt>
      <trkpt lat="43.5068" lon="6.28835">
        <ele>203</ele>
        <time>2023-11-27T07:58:25Z</time>
      </trkpt>
      <trkpt lat="43.50682" lon="6.28822">
        <ele>203.4</ele>
        <time>2023-11-27T07:58:34Z</time>
      </trkpt>
      <trkpt lat="43.50683" lon="6.28808">
        <ele>202.2</ele>
        <time>2023-11-27T07:58:50Z</time>
      </trkpt>
      <trkpt lat="43.50681" lon="6.28796">
        <ele>202.7</ele>
        <time>2023-11-27T07:58:59Z</time>
      </trkpt>
      <trkpt lat="43.50678" lon="6.28783">
        <ele>203.4</ele>
        <time>2023-11-27T07:59:08Z</time>
      </trkpt>
      <trkpt lat="43.50679" lon="6.2877">
        <ele>201.9</ele>
        <time>2023-11-27T07:59:32Z</time>
      </trkpt>
      <trkpt lat="43.50677" lon="6.28758">
        <ele>203.5</ele>
        <time>2023-11-27T08:00:07Z</time>
      </trkpt>
      <trkpt lat="43.50671" lon="6.28747">
        <ele>203.6</ele>
        <time>2023-11-27T08:00:15Z</time>
      </trkpt>
      <trkpt lat="43.50666" lon="6.28737">
        <ele>203.2</ele>
        <time>2023-11-27T08:00:23Z</time>
      </trkpt>
      <trkpt lat="43.50662" lon="6.28724">
        <ele>204.3</ele>
        <time>2023-11-27T08:00:39Z</time>
      </trkpt>
      <trkpt lat="43.50657" lon="6.28714">
        <ele>204.1</ele>
        <time>2023-11-27T08:00:50Z</time>
      </trkpt>
      <trkpt lat="43.50649" lon="6.28706">
        <ele>203.5</ele>
        <time>2023-11-27T08:00:59Z</time>
      </trkpt>
      <trkpt lat="43.50641" lon="6.28697">
        <ele>204.3</ele>
        <time>2023-11-27T08:01:06Z</time>
      </trkpt>
      <trkpt lat="43.50634" lon="6.28689">
        <ele>204.2</ele>
        <time>2023-11-27T08:01:15Z</time>
      </trkpt>
      <trkpt lat="43.50628" lon="6.28679">
        <ele>203.7</ele>
        <time>2023-11-27T08:01:23Z</time>
      </trkpt>
      <trkpt lat="43.50622" lon="6.28668">
        <ele>203.5</ele>
        <time>2023-11-27T08:01:36Z</time>
      </trkpt>
      <trkpt lat="43.50616" lon="6.28659">
        <ele>203.1</ele>
        <time>2023-11-27T08:01:42Z</time>
      </trkpt>
      <trkpt lat="43.5061" lon="6.28647">
        <ele>201.6</ele>
        <time>2023-11-27T08:01:50Z</time>
      </trkpt>
      <trkpt lat="43.50605" lon="6.28636">
        <ele>201.1</ele>
        <time>2023-11-27T08:01:58Z</time>
      </trkpt>
      <trkpt lat="43.50599" lon="6.28624">
        <ele>204</ele>
        <time>2023-11-27T08:02:06Z</time>
      </trkpt>
      <trkpt lat="43.50594" lon="6.28613">
        <ele>203.2</ele>
        <time>2023-11-27T08:02:14Z</time>
      </trkpt>
      <trkpt lat="43.50593" lon="6.28599">
        <ele>202.1</ele>
        <time>2023-11-27T08:02:22Z</time>
      </trkpt>
      <trkpt lat="43.50595" lon="6.28588">
        <ele>200.3</ele>
        <time>2023-11-27T08:02:33Z</time>
      </trkpt>
      <trkpt lat="43.50598" lon="6.28574">
        <ele>201.7</ele>
        <time>2023-11-27T08:02:44Z</time>
      </trkpt>
      <trkpt lat="43.50601" lon="6.28562">
        <ele>198.6</ele>
        <time>2023-11-27T08:02:55Z</time>
      </trkpt>
      <trkpt lat="43.50604" lon="6.28548">
        <ele>199.3</ele>
        <time>2023-11-27T08:03:05Z</time>
      </trkpt>
      <trkpt lat="43.50606" lon="6.28536">
        <ele>199.8</ele>
        <time>2023-11-27T08:03:12Z</time>
      </trkpt>
      <trkpt lat="43.50609" lon="6.28523">
        <ele>199.4</ele>
        <time>2023-11-27T08:03:21Z</time>
      </trkpt>
      <trkpt lat="43.50613" lon="6.28511">
        <ele>198.9</ele>
        <time>2023-11-27T08:03:30Z</time>
      </trkpt>
      <trkpt lat="43.50614" lon="6.28498">
        <ele>199</ele>
        <time>2023-11-27T08:03:37Z</time>
      </trkpt>
      <trkpt lat="43.50616" lon="6.28486">
        <ele>199</ele>
        <time>2023-11-27T08:03:46Z</time>
      </trkpt>
      <trkpt lat="43.50617" lon="6.28473">
        <ele>198.7</ele>
        <time>2023-11-27T08:03:54Z</time>
      </trkpt>
      <trkpt lat="43.5062" lon="6.2846">
        <ele>198.5</ele>
        <time>2023-11-27T08:04:03Z</time>
      </trkpt>
      <trkpt lat="43.50619" lon="6.28447">
        <ele>198.7</ele>
        <time>2023-11-27T08:04:11Z</time>
      </trkpt>
      <trkpt lat="43.5062" lon="6.28434">
        <ele>198.9</ele>
        <time>2023-11-27T08:04:20Z</time>
      </trkpt>
      <trkpt lat="43.50619" lon="6.28421">
        <ele>199.1</ele>
        <time>2023-11-27T08:04:29Z</time>
      </trkpt>
      <trkpt lat="43.50619" lon="6.28407">
        <ele>199.3</ele>
        <time>2023-11-27T08:04:39Z</time>
      </trkpt>
      <trkpt lat="43.50617" lon="6.28394">
        <ele>199.4</ele>
        <time>2023-11-27T08:04:48Z</time>
      </trkpt>
      <trkpt lat="43.50613" lon="6.28382">
        <ele>199.1</ele>
        <time>2023-11-27T08:05:02Z</time>
      </trkpt>
      <trkpt lat="43.5061" lon="6.2837">
        <ele>198.7</ele>
        <time>2023-11-27T08:05:12Z</time>
      </trkpt>
      <trkpt lat="43.50606" lon="6.28358">
        <ele>197.9</ele>
        <time>2023-11-27T08:05:24Z</time>
      </trkpt>
      <trkpt lat="43.50601" lon="6.28346">
        <ele>197.4</ele>
        <time>2023-11-27T08:05:32Z</time>
      </trkpt>
      <trkpt lat="43.50597" lon="6.28335">
        <ele>196.3</ele>
        <time>2023-11-27T08:05:43Z</time>
      </trkpt>
      <trkpt lat="43.50592" lon="6.28325">
        <ele>195.2</ele>
        <time>2023-11-27T08:05:57Z</time>
      </trkpt>
      <trkpt lat="43.5059" lon="6.28313">
        <ele>194.8</ele>
        <time>2023-11-27T08:06:05Z</time>
      </trkpt>
      <trkpt lat="43.50587" lon="6.28301">
        <ele>194.3</ele>
        <time>2023-11-27T08:06:13Z</time>
      </trkpt>
      <trkpt lat="43.50584" lon="6.28289">
        <ele>192.9</ele>
        <time>2023-11-27T08:06:29Z</time>
      </trkpt>
      <trkpt lat="43.50579" lon="6.28277">
        <ele>192</ele>
        <time>2023-11-27T08:06:39Z</time>
      </trkpt>
      <trkpt lat="43.50576" lon="6.28264">
        <ele>191.2</ele>
        <time>2023-11-27T08:06:48Z</time>
      </trkpt>
      <trkpt lat="43.50573" lon="6.28252">
        <ele>190.3</ele>
        <time>2023-11-27T08:06:56Z</time>
      </trkpt>
      <trkpt lat="43.5057" lon="6.2824">
        <ele>189.1</ele>
        <time>2023-11-27T08:07:05Z</time>
      </trkpt>
      <trkpt lat="43.50567" lon="6.28226">
        <ele>188.5</ele>
        <time>2023-11-27T08:07:15Z</time>
      </trkpt>
      <trkpt lat="43.50564" lon="6.28214">
        <ele>187.8</ele>
        <time>2023-11-27T08:07:24Z</time>
      </trkpt>
      <trkpt lat="43.50562" lon="6.28201">
        <ele>187.3</ele>
        <time>2023-11-27T08:07:33Z</time>
      </trkpt>
      <trkpt lat="43.50562" lon="6.28188">
        <ele>186.7</ele>
        <time>2023-11-27T08:07:42Z</time>
      </trkpt>
      <trkpt lat="43.50556" lon="6.28176">
        <ele>183.4</ele>
        <time>2023-11-27T08:07:51Z</time>
      </trkpt>
      <trkpt lat="43.50549" lon="6.28168">
        <ele>185.8</ele>
        <time>2023-11-27T08:07:59Z</time>
      </trkpt>
      <trkpt lat="43.50543" lon="6.28159">
        <ele>184.8</ele>
        <time>2023-11-27T08:08:07Z</time>
      </trkpt>
      <trkpt lat="43.50538" lon="6.28147">
        <ele>183</ele>
        <time>2023-11-27T08:08:18Z</time>
      </trkpt>
      <trkpt lat="43.50534" lon="6.28136">
        <ele>181.9</ele>
        <time>2023-11-27T08:08:26Z</time>
      </trkpt>
      <trkpt lat="43.50531" lon="6.28124">
        <ele>180.7</ele>
        <time>2023-11-27T08:08:34Z</time>
      </trkpt>
      <trkpt lat="43.50527" lon="6.28113">
        <ele>179.5</ele>
        <time>2023-11-27T08:08:43Z</time>
      </trkpt>
      <trkpt lat="43.50523" lon="6.28101">
        <ele>178.1</ele>
        <time>2023-11-27T08:08:53Z</time>
      </trkpt>
      <trkpt lat="43.50517" lon="6.28089">
        <ele>176.9</ele>
        <time>2023-11-27T08:09:02Z</time>
      </trkpt>
      <trkpt lat="43.50513" lon="6.28078">
        <ele>175.9</ele>
        <time>2023-11-27T08:09:12Z</time>
      </trkpt>
      <trkpt lat="43.50506" lon="6.28068">
        <ele>174.7</ele>
        <time>2023-11-27T08:09:21Z</time>
      </trkpt>
      <trkpt lat="43.50499" lon="6.2806">
        <ele>173.3</ele>
        <time>2023-11-27T08:09:31Z</time>
      </trkpt>
      <trkpt lat="43.50491" lon="6.28052">
        <ele>172.9</ele>
        <time>2023-11-27T08:09:40Z</time>
      </trkpt>
      <trkpt lat="43.50484" lon="6.28044">
        <ele>172.4</ele>
        <time>2023-11-27T08:09:48Z</time>
      </trkpt>
      <trkpt lat="43.50476" lon="6.28036">
        <ele>171.8</ele>
        <time>2023-11-27T08:09:56Z</time>
      </trkpt>
      <trkpt lat="43.50467" lon="6.28038">
        <ele>170.9</ele>
        <time>2023-11-27T08:10:24Z</time>
      </trkpt>
      <trkpt lat="43.50464" lon="6.28026">
        <ele>171.4</ele>
        <time>2023-11-27T08:10:49Z</time>
      </trkpt>
      <trkpt lat="43.50457" lon="6.28018">
        <ele>171.4</ele>
        <time>2023-11-27T08:10:57Z</time>
      </trkpt>
      <trkpt lat="43.50452" lon="6.28006">
        <ele>171.5</ele>
        <time>2023-11-27T08:11:07Z</time>
      </trkpt>
      <trkpt lat="43.50445" lon="6.27999">
        <ele>172</ele>
        <time>2023-11-27T08:11:17Z</time>
      </trkpt>
      <trkpt lat="43.50443" lon="6.27984">
        <ele>172.5</ele>
        <time>2023-11-27T08:11:31Z</time>
      </trkpt>
      <trkpt lat="43.50441" lon="6.27971">
        <ele>173.6</ele>
        <time>2023-11-27T08:11:44Z</time>
      </trkpt>
      <trkpt lat="43.50437" lon="6.2796">
        <ele>174.8</ele>
        <time>2023-11-27T08:11:54Z</time>
      </trkpt>
      <trkpt lat="43.50434" lon="6.27948">
        <ele>175.7</ele>
        <time>2023-11-27T08:12:04Z</time>
      </trkpt>
      <trkpt lat="43.50431" lon="6.27936">
        <ele>176.7</ele>
        <time>2023-11-27T08:12:14Z</time>
      </trkpt>
      <trkpt lat="43.50428" lon="6.27924">
        <ele>178.4</ele>
        <time>2023-11-27T08:12:25Z</time>
      </trkpt>
      <trkpt lat="43.50427" lon="6.27911">
        <ele>179.8</ele>
        <time>2023-11-27T08:12:37Z</time>
      </trkpt>
      <trkpt lat="43.50429" lon="6.27898">
        <ele>181.3</ele>
        <time>2023-11-27T08:12:47Z</time>
      </trkpt>
      <trkpt lat="43.50433" lon="6.27886">
        <ele>182.3</ele>
        <time>2023-11-27T08:12:59Z</time>
      </trkpt>
      <trkpt lat="43.5044" lon="6.27876">
        <ele>183</ele>
        <time>2023-11-27T08:13:11Z</time>
      </trkpt>
      <trkpt lat="43.50443" lon="6.27865">
        <ele>183.7</ele>
        <time>2023-11-27T08:13:26Z</time>
      </trkpt>
      <trkpt lat="43.50449" lon="6.27854">
        <ele>184.5</ele>
        <time>2023-11-27T08:13:39Z</time>
      </trkpt>
      <trkpt lat="43.50457" lon="6.27846">
        <ele>185.2</ele>
        <time>2023-11-27T08:13:52Z</time>
      </trkpt>
      <trkpt lat="43.50465" lon="6.27841">
        <ele>185.9</ele>
        <time>2023-11-27T08:14:11Z</time>
      </trkpt>
      <trkpt lat="43.50473" lon="6.27834">
        <ele>186.5</ele>
        <time>2023-11-27T08:14:22Z</time>
      </trkpt>
      <trkpt lat="43.50481" lon="6.27828">
        <ele>186.9</ele>
        <time>2023-11-27T08:14:31Z</time>
      </trkpt>
      <trkpt lat="43.5049" lon="6.27823">
        <ele>188.3</ele>
        <time>2023-11-27T08:14:44Z</time>
      </trkpt>
      <trkpt lat="43.50498" lon="6.27816">
        <ele>188.7</ele>
        <time>2023-11-27T08:14:54Z</time>
      </trkpt>
      <trkpt lat="43.50505" lon="6.27806">
        <ele>188.9</ele>
        <time>2023-11-27T08:15:05Z</time>
      </trkpt>
      <trkpt lat="43.50509" lon="6.27795">
        <ele>189.4</ele>
        <time>2023-11-27T08:15:14Z</time>
      </trkpt>
      <trkpt lat="43.50511" lon="6.27782">
        <ele>190</ele>
        <time>2023-11-27T08:15:23Z</time>
      </trkpt>
      <trkpt lat="43.50515" lon="6.2777">
        <ele>190.9</ele>
        <time>2023-11-27T08:15:41Z</time>
      </trkpt>
      <trkpt lat="43.50522" lon="6.2776">
        <ele>191.8</ele>
        <time>2023-11-27T08:15:53Z</time>
      </trkpt>
      <trkpt lat="43.50528" lon="6.27749">
        <ele>192.8</ele>
        <time>2023-11-27T08:16:02Z</time>
      </trkpt>
      <trkpt lat="43.50536" lon="6.27741">
        <ele>193.8</ele>
        <time>2023-11-27T08:16:12Z</time>
      </trkpt>
      <trkpt lat="43.50544" lon="6.27736">
        <ele>194.8</ele>
        <time>2023-11-27T08:16:24Z</time>
      </trkpt>
      <trkpt lat="43.50554" lon="6.2773">
        <ele>195.5</ele>
        <time>2023-11-27T08:16:35Z</time>
      </trkpt>
      <trkpt lat="43.50563" lon="6.27728">
        <ele>196.4</ele>
        <time>2023-11-27T08:16:57Z</time>
      </trkpt>
      <trkpt lat="43.50572" lon="6.27726">
        <ele>197.5</ele>
        <time>2023-11-27T08:17:10Z</time>
      </trkpt>
      <trkpt lat="43.50581" lon="6.27724">
        <ele>199</ele>
        <time>2023-11-27T08:17:23Z</time>
      </trkpt>
      <trkpt lat="43.5059" lon="6.27718">
        <ele>200.5</ele>
        <time>2023-11-27T08:17:35Z</time>
      </trkpt>
      <trkpt lat="43.50596" lon="6.27708">
        <ele>201.6</ele>
        <time>2023-11-27T08:17:47Z</time>
      </trkpt>
      <trkpt lat="43.50605" lon="6.27699">
        <ele>202.6</ele>
        <time>2023-11-27T08:18:04Z</time>
      </trkpt>
      <trkpt lat="43.50612" lon="6.27691">
        <ele>204.2</ele>
        <time>2023-11-27T08:18:18Z</time>
      </trkpt>
      <trkpt lat="43.50618" lon="6.27681">
        <ele>205.5</ele>
        <time>2023-11-27T08:18:33Z</time>
      </trkpt>
      <trkpt lat="43.50626" lon="6.27672">
        <ele>206.3</ele>
        <time>2023-11-27T08:18:50Z</time>
      </trkpt>
      <trkpt lat="43.50634" lon="6.27665">
        <ele>206.6</ele>
        <time>2023-11-27T08:18:58Z</time>
      </trkpt>
      <trkpt lat="43.50641" lon="6.27656">
        <ele>207.1</ele>
        <time>2023-11-27T08:19:06Z</time>
      </trkpt>
      <trkpt lat="43.50645" lon="6.27645">
        <ele>207.3</ele>
        <time>2023-11-27T08:19:21Z</time>
      </trkpt>
      <trkpt lat="43.5065" lon="6.27635">
        <ele>208.3</ele>
        <time>2023-11-27T08:19:27Z</time>
      </trkpt>
      <trkpt lat="43.50656" lon="6.27625">
        <ele>208.1</ele>
        <time>2023-11-27T08:19:36Z</time>
      </trkpt>
      <trkpt lat="43.50662" lon="6.27615">
        <ele>208.1</ele>
        <time>2023-11-27T08:19:46Z</time>
      </trkpt>
      <trkpt lat="43.50667" lon="6.27604">
        <ele>208.3</ele>
        <time>2023-11-27T08:19:56Z</time>
      </trkpt>
      <trkpt lat="43.50671" lon="6.27592">
        <ele>208.5</ele>
        <time>2023-11-27T08:20:07Z</time>
      </trkpt>
      <trkpt lat="43.50675" lon="6.2758">
        <ele>209.5</ele>
        <time>2023-11-27T08:20:28Z</time>
      </trkpt>
      <trkpt lat="43.50677" lon="6.27567">
        <ele>209.9</ele>
        <time>2023-11-27T08:20:40Z</time>
      </trkpt>
      <trkpt lat="43.50681" lon="6.27555">
        <ele>210.7</ele>
        <time>2023-11-27T08:20:50Z</time>
      </trkpt>
      <trkpt lat="43.50685" lon="6.27544">
        <ele>211.7</ele>
        <time>2023-11-27T08:21:05Z</time>
      </trkpt>
      <trkpt lat="43.50689" lon="6.27532">
        <ele>212.8</ele>
        <time>2023-11-27T08:21:18Z</time>
      </trkpt>
      <trkpt lat="43.50695" lon="6.27522">
        <ele>213.7</ele>
        <time>2023-11-27T08:21:30Z</time>
      </trkpt>
      <trkpt lat="43.507" lon="6.27512">
        <ele>214.5</ele>
        <time>2023-11-27T08:21:40Z</time>
      </trkpt>
      <trkpt lat="43.50705" lon="6.27501">
        <ele>215.8</ele>
        <time>2023-11-27T08:21:53Z</time>
      </trkpt>
      <trkpt lat="43.5071" lon="6.2749">
        <ele>217.3</ele>
        <time>2023-11-27T08:22:09Z</time>
      </trkpt>
      <trkpt lat="43.50717" lon="6.27479">
        <ele>218.5</ele>
        <time>2023-11-27T08:22:22Z</time>
      </trkpt>
      <trkpt lat="43.50721" lon="6.27468">
        <ele>219.7</ele>
        <time>2023-11-27T08:22:38Z</time>
      </trkpt>
      <trkpt lat="43.50721" lon="6.27455">
        <ele>221.5</ele>
        <time>2023-11-27T08:23:08Z</time>
      </trkpt>
      <trkpt lat="43.50727" lon="6.27445">
        <ele>222</ele>
        <time>2023-11-27T08:23:18Z</time>
      </trkpt>
      <trkpt lat="43.50734" lon="6.27434">
        <ele>223.2</ele>
        <time>2023-11-27T08:23:30Z</time>
      </trkpt>
      <trkpt lat="43.5074" lon="6.27423">
        <ele>223.4</ele>
        <time>2023-11-27T08:23:42Z</time>
      </trkpt>
      <trkpt lat="43.50743" lon="6.27411">
        <ele>225.8</ele>
        <time>2023-11-27T08:23:56Z</time>
      </trkpt>
      <trkpt lat="43.50749" lon="6.274">
        <ele>227.1</ele>
        <time>2023-11-27T08:24:11Z</time>
      </trkpt>
      <trkpt lat="43.50756" lon="6.27392">
        <ele>228.4</ele>
        <time>2023-11-27T08:24:39Z</time>
      </trkpt>
      <trkpt lat="43.50764" lon="6.27385">
        <ele>228.8</ele>
        <time>2023-11-27T08:26:01Z</time>
      </trkpt>
      <trkpt lat="43.50773" lon="6.27383">
        <ele>232.3</ele>
        <time>2023-11-27T08:26:37Z</time>
      </trkpt>
      <trkpt lat="43.50782" lon="6.27381">
        <ele>232.8</ele>
        <time>2023-11-27T08:27:12Z</time>
      </trkpt>
      <trkpt lat="43.5079" lon="6.27373">
        <ele>234.5</ele>
        <time>2023-11-27T08:27:41Z</time>
      </trkpt>
      <trkpt lat="43.50796" lon="6.27364">
        <ele>235.4</ele>
        <time>2023-11-27T08:27:55Z</time>
      </trkpt>
      <trkpt lat="43.50801" lon="6.27353">
        <ele>238.7</ele>
        <time>2023-11-27T08:28:38Z</time>
      </trkpt>
      <trkpt lat="43.50802" lon="6.27341">
        <ele>241</ele>
        <time>2023-11-27T08:29:41Z</time>
      </trkpt>
      <trkpt lat="43.50806" lon="6.27329">
        <ele>239.8</ele>
        <time>2023-11-27T08:30:06Z</time>
      </trkpt>
      <trkpt lat="43.5081" lon="6.27317">
        <ele>242.7</ele>
        <time>2023-11-27T08:30:21Z</time>
      </trkpt>
      <trkpt lat="43.50816" lon="6.27308">
        <ele>243.8</ele>
        <time>2023-11-27T08:30:41Z</time>
      </trkpt>
      <trkpt lat="43.50823" lon="6.27301">
        <ele>244.7</ele>
        <time>2023-11-27T08:31:00Z</time>
      </trkpt>
      <trkpt lat="43.50831" lon="6.27293">
        <ele>245.9</ele>
        <time>2023-11-27T08:31:16Z</time>
      </trkpt>
      <trkpt lat="43.50839" lon="6.27289">
        <ele>248.3</ele>
        <time>2023-11-27T08:31:35Z</time>
      </trkpt>
      <trkpt lat="43.50849" lon="6.27289">
        <ele>251.3</ele>
        <time>2023-11-27T08:32:06Z</time>
      </trkpt>
      <trkpt lat="43.50858" lon="6.27293">
        <ele>252.6</ele>
        <time>2023-11-27T08:32:23Z</time>
      </trkpt>
      <trkpt lat="43.50867" lon="6.27295">
        <ele>254.3</ele>
        <time>2023-11-27T08:32:42Z</time>
      </trkpt>
      <trkpt lat="43.50877" lon="6.27296">
        <ele>256.5</ele>
        <time>2023-11-27T08:33:03Z</time>
      </trkpt>
      <trkpt lat="43.50886" lon="6.27295">
        <ele>259.6</ele>
        <time>2023-11-27T08:33:23Z</time>
      </trkpt>
      <trkpt lat="43.50895" lon="6.2729">
        <ele>259</ele>
        <time>2023-11-27T08:33:49Z</time>
      </trkpt>
      <trkpt lat="43.50902" lon="6.27281">
        <ele>262</ele>
        <time>2023-11-27T08:34:04Z</time>
      </trkpt>
      <trkpt lat="43.5091" lon="6.27277">
        <ele>262.2</ele>
        <time>2023-11-27T08:34:21Z</time>
      </trkpt>
      <trkpt lat="43.50916" lon="6.27267">
        <ele>264.7</ele>
        <time>2023-11-27T08:35:02Z</time>
      </trkpt>
      <trkpt lat="43.50919" lon="6.27255">
        <ele>265.9</ele>
        <time>2023-11-27T08:35:22Z</time>
      </trkpt>
      <trkpt lat="43.50923" lon="6.27243">
        <ele>267</ele>
        <time>2023-11-27T08:35:34Z</time>
      </trkpt>
      <trkpt lat="43.50925" lon="6.27231">
        <ele>268.4</ele>
        <time>2023-11-27T08:36:17Z</time>
      </trkpt>
      <trkpt lat="43.50928" lon="6.27219">
        <ele>271</ele>
        <time>2023-11-27T08:36:35Z</time>
      </trkpt>
      <trkpt lat="43.50933" lon="6.27208">
        <ele>271.9</ele>
        <time>2023-11-27T08:36:52Z</time>
      </trkpt>
      <trkpt lat="43.50937" lon="6.27196">
        <ele>272.9</ele>
        <time>2023-11-27T08:37:03Z</time>
      </trkpt>
      <trkpt lat="43.50941" lon="6.27185">
        <ele>273.5</ele>
        <time>2023-11-27T08:37:25Z</time>
      </trkpt>
      <trkpt lat="43.50945" lon="6.27173">
        <ele>273.9</ele>
        <time>2023-11-27T08:37:37Z</time>
      </trkpt>
      <trkpt lat="43.50949" lon="6.27161">
        <ele>275.4</ele>
        <time>2023-11-27T08:37:47Z</time>
      </trkpt>
      <trkpt lat="43.50953" lon="6.2715">
        <ele>275.5</ele>
        <time>2023-11-27T08:37:57Z</time>
      </trkpt>
      <trkpt lat="43.50957" lon="6.27138">
        <ele>276.4</ele>
        <time>2023-11-27T08:38:11Z</time>
      </trkpt>
      <trkpt lat="43.50954" lon="6.27126">
        <ele>277.4</ele>
        <time>2023-11-27T08:39:49Z</time>
      </trkpt>
      <trkpt lat="43.50962" lon="6.27121">
        <ele>278.1</ele>
        <time>2023-11-27T08:42:39Z</time>
      </trkpt>
      <trkpt lat="43.50961" lon="6.27108">
        <ele>280</ele>
        <time>2023-11-27T08:43:35Z</time>
      </trkpt>
      <trkpt lat="43.50967" lon="6.27098">
        <ele>279.1</ele>
        <time>2023-11-27T08:44:19Z</time>
      </trkpt>
      <trkpt lat="43.5097" lon="6.27087">
        <ele>281.1</ele>
        <time>2023-11-27T08:45:02Z</time>
      </trkpt>
      <trkpt lat="43.50972" lon="6.27073">
        <ele>281.9</ele>
        <time>2023-11-27T08:45:21Z</time>
      </trkpt>
      <trkpt lat="43.50974" lon="6.27061">
        <ele>282.6</ele>
        <time>2023-11-27T08:45:31Z</time>
      </trkpt>
      <trkpt lat="43.50979" lon="6.27049">
        <ele>283.6</ele>
        <time>2023-11-27T08:45:39Z</time>
      </trkpt>
      <trkpt lat="43.50982" lon="6.27036">
        <ele>284.7</ele>
        <time>2023-11-27T08:45:50Z</time>
      </trkpt>
      <trkpt lat="43.50983" lon="6.27023">
        <ele>284.3</ele>
        <time>2023-11-27T08:45:59Z</time>
      </trkpt>
      <trkpt lat="43.5099" lon="6.27015">
        <ele>284.8</ele>
        <time>2023-11-27T08:46:16Z</time>
      </trkpt>
      <trkpt lat="43.50992" lon="6.27003">
        <ele>285.6</ele>
        <time>2023-11-27T08:47:22Z</time>
      </trkpt>
      <trkpt lat="43.50997" lon="6.26992">
        <ele>285.9</ele>
        <time>2023-11-27T08:47:36Z</time>
      </trkpt>
      <trkpt lat="43.51001" lon="6.2698">
        <ele>286.1</ele>
        <time>2023-11-27T08:47:47Z</time>
      </trkpt>
      <trkpt lat="43.51007" lon="6.26969">
        <ele>286.4</ele>
        <time>2023-11-27T08:47:57Z</time>
      </trkpt>
      <trkpt lat="43.51014" lon="6.26961">
        <ele>286.7</ele>
        <time>2023-11-27T08:48:22Z</time>
      </trkpt>
      <trkpt lat="43.51019" lon="6.2695">
        <ele>286.7</ele>
        <time>2023-11-27T08:48:35Z</time>
      </trkpt>
      <trkpt lat="43.51025" lon="6.2694">
        <ele>286.9</ele>
        <time>2023-11-27T08:48:52Z</time>
      </trkpt>
      <trkpt lat="43.51032" lon="6.2693">
        <ele>286.9</ele>
        <time>2023-11-27T08:49:00Z</time>
      </trkpt>
      <trkpt lat="43.51038" lon="6.2692">
        <ele>286.1</ele>
        <time>2023-11-27T08:49:06Z</time>
      </trkpt>
      <trkpt lat="43.51045" lon="6.26911">
        <ele>286.7</ele>
        <time>2023-11-27T08:49:14Z</time>
      </trkpt>
      <trkpt lat="43.51051" lon="6.26901">
        <ele>286.8</ele>
        <time>2023-11-27T08:49:23Z</time>
      </trkpt>
      <trkpt lat="43.51057" lon="6.26892">
        <ele>287.6</ele>
        <time>2023-11-27T08:49:28Z</time>
      </trkpt>
      <trkpt lat="43.51062" lon="6.26882">
        <ele>286.5</ele>
        <time>2023-11-27T08:49:35Z</time>
      </trkpt>
      <trkpt lat="43.5107" lon="6.26875">
        <ele>286</ele>
        <time>2023-11-27T08:49:45Z</time>
      </trkpt>
      <trkpt lat="43.51076" lon="6.26864">
        <ele>287.4</ele>
        <time>2023-11-27T08:49:56Z</time>
      </trkpt>
      <trkpt lat="43.51079" lon="6.26851">
        <ele>286.9</ele>
        <time>2023-11-27T08:50:05Z</time>
      </trkpt>
      <trkpt lat="43.51084" lon="6.26839">
        <ele>286.5</ele>
        <time>2023-11-27T08:50:13Z</time>
      </trkpt>
      <trkpt lat="43.5109" lon="6.2683">
        <ele>285.8</ele>
        <time>2023-11-27T08:50:22Z</time>
      </trkpt>
      <trkpt lat="43.51096" lon="6.2682">
        <ele>285.5</ele>
        <time>2023-11-27T08:50:33Z</time>
      </trkpt>
      <trkpt lat="43.511" lon="6.26809">
        <ele>284.9</ele>
        <time>2023-11-27T08:50:44Z</time>
      </trkpt>
      <trkpt lat="43.51104" lon="6.26797">
        <ele>284.2</ele>
        <time>2023-11-27T08:50:55Z</time>
      </trkpt>
      <trkpt lat="43.51105" lon="6.26785">
        <ele>281.1</ele>
        <time>2023-11-27T08:51:08Z</time>
      </trkpt>
      <trkpt lat="43.51108" lon="6.26773">
        <ele>281.8</ele>
        <time>2023-11-27T08:51:20Z</time>
      </trkpt>
      <trkpt lat="43.51111" lon="6.2676">
        <ele>281.9</ele>
        <time>2023-11-27T08:51:36Z</time>
      </trkpt>
      <trkpt lat="43.51111" lon="6.26747">
        <ele>280.2</ele>
        <time>2023-11-27T08:51:53Z</time>
      </trkpt>
      <trkpt lat="43.51115" lon="6.26735">
        <ele>278.8</ele>
        <time>2023-11-27T08:52:05Z</time>
      </trkpt>
      <trkpt lat="43.51118" lon="6.26723">
        <ele>280.1</ele>
        <time>2023-11-27T08:52:13Z</time>
      </trkpt>
      <trkpt lat="43.51122" lon="6.26711">
        <ele>278</ele>
        <time>2023-11-27T08:52:26Z</time>
      </trkpt>
      <trkpt lat="43.51125" lon="6.26699">
        <ele>278.8</ele>
        <time>2023-11-27T08:52:37Z</time>
      </trkpt>
      <trkpt lat="43.51128" lon="6.26686">
        <ele>278.2</ele>
        <time>2023-11-27T08:52:53Z</time>
      </trkpt>
      <trkpt lat="43.51133" lon="6.26675">
        <ele>277.3</ele>
        <time>2023-11-27T08:53:05Z</time>
      </trkpt>
      <trkpt lat="43.51139" lon="6.26664">
        <ele>277.1</ele>
        <time>2023-11-27T08:53:19Z</time>
      </trkpt>
      <trkpt lat="43.51144" lon="6.26654">
        <ele>275.7</ele>
        <time>2023-11-27T08:53:30Z</time>
      </trkpt>
      <trkpt lat="43.51151" lon="6.26643">
        <ele>276.1</ele>
        <time>2023-11-27T08:53:43Z</time>
      </trkpt>
      <trkpt lat="43.51156" lon="6.26631">
        <ele>276.7</ele>
        <time>2023-11-27T08:53:58Z</time>
      </trkpt>
      <trkpt lat="43.51163" lon="6.26623">
        <ele>274.7</ele>
        <time>2023-11-27T08:54:10Z</time>
      </trkpt>
      <trkpt lat="43.5117" lon="6.26615">
        <ele>275</ele>
        <time>2023-11-27T08:54:20Z</time>
      </trkpt>
      <trkpt lat="43.51178" lon="6.26608">
        <ele>274.5</ele>
        <time>2023-11-27T08:54:31Z</time>
      </trkpt>
      <trkpt lat="43.51187" lon="6.26603">
        <ele>274.1</ele>
        <time>2023-11-27T08:54:41Z</time>
      </trkpt>
      <trkpt lat="43.51196" lon="6.26598">
        <ele>273.5</ele>
        <time>2023-11-27T08:54:52Z</time>
      </trkpt>
      <trkpt lat="43.51205" lon="6.26594">
        <ele>273.2</ele>
        <time>2023-11-27T08:55:04Z</time>
      </trkpt>
      <trkpt lat="43.51211" lon="6.26585">
        <ele>272.4</ele>
        <time>2023-11-27T08:55:14Z</time>
      </trkpt>
      <trkpt lat="43.51221" lon="6.26583">
        <ele>271.8</ele>
        <time>2023-11-27T08:55:27Z</time>
      </trkpt>
      <trkpt lat="43.5123" lon="6.2658">
        <ele>270.9</ele>
        <time>2023-11-27T08:55:45Z</time>
      </trkpt>
      <trkpt lat="43.51238" lon="6.26573">
        <ele>270.4</ele>
        <time>2023-11-27T08:56:02Z</time>
      </trkpt>
      <trkpt lat="43.51245" lon="6.26565">
        <ele>268.4</ele>
        <time>2023-11-27T08:56:16Z</time>
      </trkpt>
      <trkpt lat="43.51253" lon="6.26559">
        <ele>266.9</ele>
        <time>2023-11-27T08:56:29Z</time>
      </trkpt>
      <trkpt lat="43.51261" lon="6.26552">
        <ele>265.7</ele>
        <time>2023-11-27T08:56:44Z</time>
      </trkpt>
      <trkpt lat="43.5127" lon="6.2655">
        <ele>264.7</ele>
        <time>2023-11-27T08:56:57Z</time>
      </trkpt>
      <trkpt lat="43.5128" lon="6.26546">
        <ele>263.3</ele>
        <time>2023-11-27T08:57:29Z</time>
      </trkpt>
      <trkpt lat="43.51288" lon="6.2654">
        <ele>262.3</ele>
        <time>2023-11-27T08:57:45Z</time>
      </trkpt>
      <trkpt lat="43.51297" lon="6.26541">
        <ele>260.8</ele>
        <time>2023-11-27T08:57:59Z</time>
      </trkpt>
      <trkpt lat="43.51306" lon="6.26543">
        <ele>259.5</ele>
        <time>2023-11-27T08:58:12Z</time>
      </trkpt>
      <trkpt lat="43.51315" lon="6.26547">
        <ele>258.2</ele>
        <time>2023-11-27T08:58:27Z</time>
      </trkpt>
      <trkpt lat="43.51322" lon="6.26555">
        <ele>257.2</ele>
        <time>2023-11-27T08:59:11Z</time>
      </trkpt>
      <trkpt lat="43.51332" lon="6.26558">
        <ele>257.7</ele>
        <time>2023-11-27T09:00:58Z</time>
      </trkpt>
      <trkpt lat="43.51341" lon="6.26558">
        <ele>257.7</ele>
        <time>2023-11-27T09:01:07Z</time>
      </trkpt>
      <trkpt lat="43.51351" lon="6.26558">
        <ele>257.5</ele>
        <time>2023-11-27T09:01:19Z</time>
      </trkpt>
      <trkpt lat="43.5136" lon="6.26555">
        <ele>257.4</ele>
        <time>2023-11-27T09:01:28Z</time>
      </trkpt>
      <trkpt lat="43.51369" lon="6.2655">
        <ele>257.1</ele>
        <time>2023-11-27T09:01:37Z</time>
      </trkpt>
      <trkpt lat="43.51377" lon="6.26543">
        <ele>257.3</ele>
        <time>2023-11-27T09:02:48Z</time>
      </trkpt>
      <trkpt lat="43.51379" lon="6.26531">
        <ele>258.3</ele>
        <time>2023-11-27T09:03:10Z</time>
      </trkpt>
      <trkpt lat="43.51386" lon="6.26522">
        <ele>258.8</ele>
        <time>2023-11-27T09:03:21Z</time>
      </trkpt>
      <trkpt lat="43.51394" lon="6.26513">
        <ele>259.4</ele>
        <time>2023-11-27T09:03:30Z</time>
      </trkpt>
      <trkpt lat="43.514" lon="6.26505">
        <ele>260.1</ele>
        <time>2023-11-27T09:03:40Z</time>
      </trkpt>
      <trkpt lat="43.51407" lon="6.26495">
        <ele>261</ele>
        <time>2023-11-27T09:03:51Z</time>
      </trkpt>
      <trkpt lat="43.51413" lon="6.26485">
        <ele>261.6</ele>
        <time>2023-11-27T09:04:01Z</time>
      </trkpt>
      <trkpt lat="43.51421" lon="6.26477">
        <ele>262.1</ele>
        <time>2023-11-27T09:04:11Z</time>
      </trkpt>
      <trkpt lat="43.51426" lon="6.26466">
        <ele>263</ele>
        <time>2023-11-27T09:04:22Z</time>
      </trkpt>
      <trkpt lat="43.51434" lon="6.26459">
        <ele>263.6</ele>
        <time>2023-11-27T09:04:33Z</time>
      </trkpt>
      <trkpt lat="43.51442" lon="6.26452">
        <ele>264.1</ele>
        <time>2023-11-27T09:04:43Z</time>
      </trkpt>
      <trkpt lat="43.51448" lon="6.26443">
        <ele>265.1</ele>
        <time>2023-11-27T09:04:53Z</time>
      </trkpt>
      <trkpt lat="43.51453" lon="6.26432">
        <ele>266.1</ele>
        <time>2023-11-27T09:05:03Z</time>
      </trkpt>
      <trkpt lat="43.51457" lon="6.26421">
        <ele>266.3</ele>
        <time>2023-11-27T09:05:14Z</time>
      </trkpt>
      <trkpt lat="43.51462" lon="6.2641">
        <ele>268.3</ele>
        <time>2023-11-27T09:05:26Z</time>
      </trkpt>
      <trkpt lat="43.51464" lon="6.26398">
        <ele>268.3</ele>
        <time>2023-11-27T09:08:13Z</time>
      </trkpt>
      <trkpt lat="43.5147" lon="6.26388">
        <ele>268.1</ele>
        <time>2023-11-27T09:09:15Z</time>
      </trkpt>
      <trkpt lat="43.51474" lon="6.26376">
        <ele>269.2</ele>
        <time>2023-11-27T09:09:28Z</time>
      </trkpt>
      <trkpt lat="43.51474" lon="6.26363">
        <ele>270.5</ele>
        <time>2023-11-27T09:09:42Z</time>
      </trkpt>
      <trkpt lat="43.51475" lon="6.2635">
        <ele>271.3</ele>
        <time>2023-11-27T09:09:52Z</time>
      </trkpt>
      <trkpt lat="43.51475" lon="6.26338">
        <ele>272.4</ele>
        <time>2023-11-27T09:10:03Z</time>
      </trkpt>
      <trkpt lat="43.51474" lon="6.26324">
        <ele>274.3</ele>
        <time>2023-11-27T09:10:20Z</time>
      </trkpt>
      <trkpt lat="43.51475" lon="6.26311">
        <ele>276.5</ele>
        <time>2023-11-27T09:10:55Z</time>
      </trkpt>
      <trkpt lat="43.51475" lon="6.26298">
        <ele>276.9</ele>
        <time>2023-11-27T09:11:08Z</time>
      </trkpt>
      <trkpt lat="43.51475" lon="6.26285">
        <ele>278</ele>
        <time>2023-11-27T09:11:22Z</time>
      </trkpt>
      <trkpt lat="43.51476" lon="6.26272">
        <ele>279.3</ele>
        <time>2023-11-27T09:11:36Z</time>
      </trkpt>
      <trkpt lat="43.51478" lon="6.26258">
        <ele>280.3</ele>
        <time>2023-11-27T09:11:48Z</time>
      </trkpt>
      <trkpt lat="43.51478" lon="6.26245">
        <ele>281.3</ele>
        <time>2023-11-27T09:12:00Z</time>
      </trkpt>
      <trkpt lat="43.5148" lon="6.26232">
        <ele>281.9</ele>
        <time>2023-11-27T09:12:15Z</time>
      </trkpt>
      <trkpt lat="43.51483" lon="6.2622">
        <ele>282.5</ele>
        <time>2023-11-27T09:12:28Z</time>
      </trkpt>
      <trkpt lat="43.51483" lon="6.26207">
        <ele>283.7</ele>
        <time>2023-11-27T09:12:39Z</time>
      </trkpt>
      <trkpt lat="43.51484" lon="6.26195">
        <ele>283.7</ele>
        <time>2023-11-27T09:12:50Z</time>
      </trkpt>
      <trkpt lat="43.51486" lon="6.26182">
        <ele>283.9</ele>
        <time>2023-11-27T09:13:01Z</time>
      </trkpt>
      <trkpt lat="43.51486" lon="6.26169">
        <ele>284.3</ele>
        <time>2023-11-27T09:13:12Z</time>
      </trkpt>
      <trkpt lat="43.5149" lon="6.26157">
        <ele>284.6</ele>
        <time>2023-11-27T09:13:22Z</time>
      </trkpt>
      <trkpt lat="43.51492" lon="6.26144">
        <ele>284.8</ele>
        <time>2023-11-27T09:13:32Z</time>
      </trkpt>
      <trkpt lat="43.51493" lon="6.26131">
        <ele>284.9</ele>
        <time>2023-11-27T09:13:42Z</time>
      </trkpt>
      <trkpt lat="43.51493" lon="6.26118">
        <ele>285.2</ele>
        <time>2023-11-27T09:13:51Z</time>
      </trkpt>
      <trkpt lat="43.51494" lon="6.26105">
        <ele>285.2</ele>
        <time>2023-11-27T09:14:03Z</time>
      </trkpt>
      <trkpt lat="43.51494" lon="6.26092">
        <ele>285.3</ele>
        <time>2023-11-27T09:14:15Z</time>
      </trkpt>
      <trkpt lat="43.51493" lon="6.26079">
        <ele>285.4</ele>
        <time>2023-11-27T09:14:24Z</time>
      </trkpt>
      <trkpt lat="43.51492" lon="6.26065">
        <ele>284.9</ele>
        <time>2023-11-27T09:14:34Z</time>
      </trkpt>
      <trkpt lat="43.51492" lon="6.26052">
        <ele>284.5</ele>
        <time>2023-11-27T09:14:44Z</time>
      </trkpt>
      <trkpt lat="43.51492" lon="6.26039">
        <ele>284.2</ele>
        <time>2023-11-27T09:14:53Z</time>
      </trkpt>
      <trkpt lat="43.51493" lon="6.26026">
        <ele>283.9</ele>
        <time>2023-11-27T09:15:02Z</time>
      </trkpt>
      <trkpt lat="43.51494" lon="6.26013">
        <ele>283.5</ele>
        <time>2023-11-27T09:15:11Z</time>
      </trkpt>
      <trkpt lat="43.51494" lon="6.26001">
        <ele>283.3</ele>
        <time>2023-11-27T09:15:19Z</time>
      </trkpt>
      <trkpt lat="43.51494" lon="6.25988">
        <ele>281.6</ele>
        <time>2023-11-27T09:15:28Z</time>
      </trkpt>
      <trkpt lat="43.51494" lon="6.25975">
        <ele>282</ele>
        <time>2023-11-27T09:15:44Z</time>
      </trkpt>
      <trkpt lat="43.51496" lon="6.25962">
        <ele>281.8</ele>
        <time>2023-11-27T09:15:53Z</time>
      </trkpt>
      <trkpt lat="43.51496" lon="6.25949">
        <ele>282</ele>
        <time>2023-11-27T09:16:07Z</time>
      </trkpt>
      <trkpt lat="43.51488" lon="6.25943">
        <ele>278.5</ele>
        <time>2023-11-27T09:18:33Z</time>
      </trkpt>
      <trkpt lat="43.51478" lon="6.25944">
        <ele>278.6</ele>
        <time>2023-11-27T09:18:43Z</time>
      </trkpt>
      <trkpt lat="43.51472" lon="6.25954">
        <ele>278.1</ele>
        <time>2023-11-27T09:18:55Z</time>
      </trkpt>
      <trkpt lat="43.51466" lon="6.25943">
        <ele>277.7</ele>
        <time>2023-11-27T09:19:16Z</time>
      </trkpt>
      <trkpt lat="43.51456" lon="6.25941">
        <ele>277.1</ele>
        <time>2023-11-27T09:19:26Z</time>
      </trkpt>
      <trkpt lat="43.51447" lon="6.2594">
        <ele>276.3</ele>
        <time>2023-11-27T09:19:35Z</time>
      </trkpt>
      <trkpt lat="43.51437" lon="6.25938">
        <ele>275.3</ele>
        <time>2023-11-27T09:19:44Z</time>
      </trkpt>
      <trkpt lat="43.51428" lon="6.25935">
        <ele>274</ele>
        <time>2023-11-27T09:19:53Z</time>
      </trkpt>
      <trkpt lat="43.51418" lon="6.25931">
        <ele>273.9</ele>
        <time>2023-11-27T09:20:02Z</time>
      </trkpt>
      <trkpt lat="43.51409" lon="6.25931">
        <ele>271.5</ele>
        <time>2023-11-27T09:20:18Z</time>
      </trkpt>
      <trkpt lat="43.51401" lon="6.25926">
        <ele>270.2</ele>
        <time>2023-11-27T09:21:07Z</time>
      </trkpt>
      <trkpt lat="43.51393" lon="6.2592">
        <ele>269.5</ele>
        <time>2023-11-27T09:21:20Z</time>
      </trkpt>
      <trkpt lat="43.51383" lon="6.25916">
        <ele>268</ele>
        <time>2023-11-27T09:21:33Z</time>
      </trkpt>
      <trkpt lat="43.51374" lon="6.25913">
        <ele>268.2</ele>
        <time>2023-11-27T09:21:45Z</time>
      </trkpt>
      <trkpt lat="43.51365" lon="6.25908">
        <ele>264.7</ele>
        <time>2023-11-27T09:22:01Z</time>
      </trkpt>
      <trkpt lat="43.51356" lon="6.25904">
        <ele>264</ele>
        <time>2023-11-27T09:22:12Z</time>
      </trkpt>
      <trkpt lat="43.51347" lon="6.25901">
        <ele>262.4</ele>
        <time>2023-11-27T09:22:23Z</time>
      </trkpt>
      <trkpt lat="43.51338" lon="6.25899">
        <ele>260.8</ele>
        <time>2023-11-27T09:22:33Z</time>
      </trkpt>
      <trkpt lat="43.51329" lon="6.25895">
        <ele>261</ele>
        <time>2023-11-27T09:22:41Z</time>
      </trkpt>
      <trkpt lat="43.5132" lon="6.2589">
        <ele>258.3</ele>
        <time>2023-11-27T09:22:53Z</time>
      </trkpt>
      <trkpt lat="43.51311" lon="6.25887">
        <ele>256.7</ele>
        <time>2023-11-27T09:23:09Z</time>
      </trkpt>
      <trkpt lat="43.51302" lon="6.25882">
        <ele>255.9</ele>
        <time>2023-11-27T09:23:24Z</time>
      </trkpt>
      <trkpt lat="43.51294" lon="6.25878">
        <ele>256.1</ele>
        <time>2023-11-27T09:23:33Z</time>
      </trkpt>
      <trkpt lat="43.51284" lon="6.25876">
        <ele>253.7</ele>
        <time>2023-11-27T09:23:44Z</time>
      </trkpt>
      <trkpt lat="43.51275" lon="6.25874">
        <ele>253.8</ele>
        <time>2023-11-27T09:23:56Z</time>
      </trkpt>
      <trkpt lat="43.51266" lon="6.25869">
        <ele>252.1</ele>
        <time>2023-11-27T09:24:06Z</time>
      </trkpt>
      <trkpt lat="43.51257" lon="6.25865">
        <ele>252.1</ele>
        <time>2023-11-27T09:24:15Z</time>
      </trkpt>
      <trkpt lat="43.51247" lon="6.25861">
        <ele>251</ele>
        <time>2023-11-27T09:24:23Z</time>
      </trkpt>
      <trkpt lat="43.51239" lon="6.25854">
        <ele>250.1</ele>
        <time>2023-11-27T09:24:33Z</time>
      </trkpt>
      <trkpt lat="43.5123" lon="6.25848">
        <ele>249.8</ele>
        <time>2023-11-27T09:24:43Z</time>
      </trkpt>
      <trkpt lat="43.51221" lon="6.25843">
        <ele>249</ele>
        <time>2023-11-27T09:24:53Z</time>
      </trkpt>
      <trkpt lat="43.51213" lon="6.25839">
        <ele>248.2</ele>
        <time>2023-11-27T09:25:02Z</time>
      </trkpt>
      <trkpt lat="43.51203" lon="6.25834">
        <ele>247.5</ele>
        <time>2023-11-27T09:25:11Z</time>
      </trkpt>
      <trkpt lat="43.51194" lon="6.2583">
        <ele>247</ele>
        <time>2023-11-27T09:25:21Z</time>
      </trkpt>
      <trkpt lat="43.51185" lon="6.25828">
        <ele>246.2</ele>
        <time>2023-11-27T09:25:31Z</time>
      </trkpt>
      <trkpt lat="43.51176" lon="6.25826">
        <ele>245.6</ele>
        <time>2023-11-27T09:25:40Z</time>
      </trkpt>
      <trkpt lat="43.51167" lon="6.25821">
        <ele>244.7</ele>
        <time>2023-11-27T09:25:51Z</time>
      </trkpt>
      <trkpt lat="43.51158" lon="6.2582">
        <ele>244.5</ele>
        <time>2023-11-27T09:26:00Z</time>
      </trkpt>
      <trkpt lat="43.5115" lon="6.25816">
        <ele>244.4</ele>
        <time>2023-11-27T09:26:09Z</time>
      </trkpt>
      <trkpt lat="43.51141" lon="6.25813">
        <ele>244.4</ele>
        <time>2023-11-27T09:26:18Z</time>
      </trkpt>
      <trkpt lat="43.51132" lon="6.2581">
        <ele>244.7</ele>
        <time>2023-11-27T09:26:27Z</time>
      </trkpt>
      <trkpt lat="43.51123" lon="6.25806">
        <ele>245.5</ele>
        <time>2023-11-27T09:26:37Z</time>
      </trkpt>
      <trkpt lat="43.51115" lon="6.25802">
        <ele>246.8</ele>
        <time>2023-11-27T09:26:48Z</time>
      </trkpt>
      <trkpt lat="43.51106" lon="6.25798">
        <ele>248</ele>
        <time>2023-11-27T09:27:00Z</time>
      </trkpt>
      <trkpt lat="43.51097" lon="6.25794">
        <ele>247.6</ele>
        <time>2023-11-27T09:27:28Z</time>
      </trkpt>
      <trkpt lat="43.51088" lon="6.25794">
        <ele>249.1</ele>
        <time>2023-11-27T09:27:47Z</time>
      </trkpt>
      <trkpt lat="43.51081" lon="6.25802">
        <ele>248.3</ele>
        <time>2023-11-27T09:29:33Z</time>
      </trkpt>
      <trkpt lat="43.51074" lon="6.25811">
        <ele>248</ele>
        <time>2023-11-27T09:29:44Z</time>
      </trkpt>
      <trkpt lat="43.5108" lon="6.25802">
        <ele>247</ele>
        <time>2023-11-27T09:30:45Z</time>
      </trkpt>
      <trkpt lat="43.51088" lon="6.25794">
        <ele>246.9</ele>
        <time>2023-11-27T09:30:54Z</time>
      </trkpt>
      <trkpt lat="43.51083" lon="6.25784">
        <ele>243.3</ele>
        <time>2023-11-27T09:33:35Z</time>
      </trkpt>
      <trkpt lat="43.51074" lon="6.25777">
        <ele>247</ele>
        <time>2023-11-27T09:34:00Z</time>
      </trkpt>
      <trkpt lat="43.51066" lon="6.25771">
        <ele>248.6</ele>
        <time>2023-11-27T09:34:08Z</time>
      </trkpt>
      <trkpt lat="43.51057" lon="6.25766">
        <ele>245.8</ele>
        <time>2023-11-27T09:34:17Z</time>
      </trkpt>
      <trkpt lat="43.51048" lon="6.25761">
        <ele>246.8</ele>
        <time>2023-11-27T09:34:28Z</time>
      </trkpt>
      <trkpt lat="43.51039" lon="6.25758">
        <ele>245.9</ele>
        <time>2023-11-27T09:34:37Z</time>
      </trkpt>
      <trkpt lat="43.5103" lon="6.25752">
        <ele>245.1</ele>
        <time>2023-11-27T09:34:54Z</time>
      </trkpt>
      <trkpt lat="43.51021" lon="6.25746">
        <ele>245.4</ele>
        <time>2023-11-27T09:35:04Z</time>
      </trkpt>
      <trkpt lat="43.51012" lon="6.25741">
        <ele>246.2</ele>
        <time>2023-11-27T09:35:11Z</time>
      </trkpt>
      <trkpt lat="43.51004" lon="6.25734">
        <ele>245.7</ele>
        <time>2023-11-27T09:35:20Z</time>
      </trkpt>
      <trkpt lat="43.50994" lon="6.2573">
        <ele>245.7</ele>
        <time>2023-11-27T09:35:29Z</time>
      </trkpt>
      <trkpt lat="43.50985" lon="6.25724">
        <ele>246</ele>
        <time>2023-11-27T09:35:39Z</time>
      </trkpt>
      <trkpt lat="43.50978" lon="6.25718">
        <ele>246</ele>
        <time>2023-11-27T09:35:51Z</time>
      </trkpt>
      <trkpt lat="43.5097" lon="6.25711">
        <ele>246.2</ele>
        <time>2023-11-27T09:36:00Z</time>
      </trkpt>
      <trkpt lat="43.50962" lon="6.25705">
        <ele>246.5</ele>
        <time>2023-11-27T09:36:14Z</time>
      </trkpt>
      <trkpt lat="43.50954" lon="6.25698">
        <ele>246.4</ele>
        <time>2023-11-27T09:36:24Z</time>
      </trkpt>
      <trkpt lat="43.50945" lon="6.25696">
        <ele>246.4</ele>
        <time>2023-11-27T09:36:32Z</time>
      </trkpt>
      <trkpt lat="43.50937" lon="6.2569">
        <ele>245.9</ele>
        <time>2023-11-27T09:36:40Z</time>
      </trkpt>
      <trkpt lat="43.50929" lon="6.25682">
        <ele>245.3</ele>
        <time>2023-11-27T09:36:48Z</time>
      </trkpt>
      <trkpt lat="43.5092" lon="6.25677">
        <ele>244.5</ele>
        <time>2023-11-27T09:36:57Z</time>
      </trkpt>
      <trkpt lat="43.50912" lon="6.25669">
        <ele>244.1</ele>
        <time>2023-11-27T09:37:06Z</time>
      </trkpt>
      <trkpt lat="43.50903" lon="6.25668">
        <ele>243.2</ele>
        <time>2023-11-27T09:37:14Z</time>
      </trkpt>
      <trkpt lat="43.50897" lon="6.25658">
        <ele>242.8</ele>
        <time>2023-11-27T09:37:31Z</time>
      </trkpt>
      <trkpt lat="43.50888" lon="6.25652">
        <ele>241.5</ele>
        <time>2023-11-27T09:37:40Z</time>
      </trkpt>
      <trkpt lat="43.50881" lon="6.25645">
        <ele>240.5</ele>
        <time>2023-11-27T09:37:48Z</time>
      </trkpt>
      <trkpt lat="43.50873" lon="6.25638">
        <ele>239.1</ele>
        <time>2023-11-27T09:37:58Z</time>
      </trkpt>
      <trkpt lat="43.50866" lon="6.25629">
        <ele>239.6</ele>
        <time>2023-11-27T09:38:13Z</time>
      </trkpt>
      <trkpt lat="43.50857" lon="6.25623">
        <ele>239.5</ele>
        <time>2023-11-27T09:38:23Z</time>
      </trkpt>
      <trkpt lat="43.50849" lon="6.25617">
        <ele>237.4</ele>
        <time>2023-11-27T09:38:31Z</time>
      </trkpt>
      <trkpt lat="43.50841" lon="6.25609">
        <ele>236.2</ele>
        <time>2023-11-27T09:38:53Z</time>
      </trkpt>
      <trkpt lat="43.5084" lon="6.25596">
        <ele>235.4</ele>
        <time>2023-11-27T09:39:11Z</time>
      </trkpt>
      <trkpt lat="43.50844" lon="6.25585">
        <ele>233.5</ele>
        <time>2023-11-27T09:39:20Z</time>
      </trkpt>
      <trkpt lat="43.50851" lon="6.25576">
        <ele>234.3</ele>
        <time>2023-11-27T09:39:29Z</time>
      </trkpt>
      <trkpt lat="43.50858" lon="6.25567">
        <ele>236.1</ele>
        <time>2023-11-27T09:39:39Z</time>
      </trkpt>
      <trkpt lat="43.50864" lon="6.25557">
        <ele>236.8</ele>
        <time>2023-11-27T09:39:53Z</time>
      </trkpt>
      <trkpt lat="43.50873" lon="6.25551">
        <ele>236.6</ele>
        <time>2023-11-27T09:40:03Z</time>
      </trkpt>
      <trkpt lat="43.50881" lon="6.25545">
        <ele>235.5</ele>
        <time>2023-11-27T09:40:13Z</time>
      </trkpt>
      <trkpt lat="43.50889" lon="6.25536">
        <ele>238.1</ele>
        <time>2023-11-27T09:40:24Z</time>
      </trkpt>
      <trkpt lat="43.50898" lon="6.25535">
        <ele>237.4</ele>
        <time>2023-11-27T09:40:33Z</time>
      </trkpt>
      <trkpt lat="43.50907" lon="6.25532">
        <ele>236.5</ele>
        <time>2023-11-27T09:40:41Z</time>
      </trkpt>
      <trkpt lat="43.50916" lon="6.25529">
        <ele>237.7</ele>
        <time>2023-11-27T09:40:51Z</time>
      </trkpt>
      <trkpt lat="43.50926" lon="6.25526">
        <ele>237.1</ele>
        <time>2023-11-27T09:40:59Z</time>
      </trkpt>
      <trkpt lat="43.50935" lon="6.25528">
        <ele>236.7</ele>
        <time>2023-11-27T09:41:06Z</time>
      </trkpt>
      <trkpt lat="43.50944" lon="6.25529">
        <ele>236.3</ele>
        <time>2023-11-27T09:41:16Z</time>
      </trkpt>
      <trkpt lat="43.50953" lon="6.2553">
        <ele>236.1</ele>
        <time>2023-11-27T09:41:24Z</time>
      </trkpt>
      <trkpt lat="43.50963" lon="6.25529">
        <ele>236.4</ele>
        <time>2023-11-27T09:41:32Z</time>
      </trkpt>
      <trkpt lat="43.50972" lon="6.25529">
        <ele>236.5</ele>
        <time>2023-11-27T09:41:40Z</time>
      </trkpt>
      <trkpt lat="43.50981" lon="6.25536">
        <ele>239.5</ele>
        <time>2023-11-27T09:41:47Z</time>
      </trkpt>
      <trkpt lat="43.50989" lon="6.25542">
        <ele>236.3</ele>
        <time>2023-11-27T09:41:57Z</time>
      </trkpt>
      <trkpt lat="43.50999" lon="6.25546">
        <ele>235.6</ele>
        <time>2023-11-27T09:42:04Z</time>
      </trkpt>
      <trkpt lat="43.51007" lon="6.2554">
        <ele>234.2</ele>
        <time>2023-11-27T09:42:13Z</time>
      </trkpt>
      <trkpt lat="43.51009" lon="6.25527">
        <ele>233.7</ele>
        <time>2023-11-27T09:42:56Z</time>
      </trkpt>
      <trkpt lat="43.51016" lon="6.25518">
        <ele>233</ele>
        <time>2023-11-27T09:44:21Z</time>
      </trkpt>
      <trkpt lat="43.51021" lon="6.25508">
        <ele>233.1</ele>
        <time>2023-11-27T09:44:57Z</time>
      </trkpt>
      <trkpt lat="43.51019" lon="6.25496">
        <ele>232.9</ele>
        <time>2023-11-27T09:45:09Z</time>
      </trkpt>
      <trkpt lat="43.51025" lon="6.25485">
        <ele>232.3</ele>
        <time>2023-11-27T09:45:27Z</time>
      </trkpt>
      <trkpt lat="43.51034" lon="6.25486">
        <ele>233.1</ele>
        <time>2023-11-27T09:46:41Z</time>
      </trkpt>
      <trkpt lat="43.51026" lon="6.25492">
        <ele>235.2</ele>
        <time>2023-11-27T09:51:21Z</time>
      </trkpt>
      <trkpt lat="43.51024" lon="6.25505">
        <ele>235</ele>
        <time>2023-11-27T09:51:41Z</time>
      </trkpt>
      <trkpt lat="43.51022" lon="6.25517">
        <ele>235</ele>
        <time>2023-11-27T09:51:50Z</time>
      </trkpt>
      <trkpt lat="43.51015" lon="6.25525">
        <ele>234.9</ele>
        <time>2023-11-27T09:52:06Z</time>
      </trkpt>
      <trkpt lat="43.51009" lon="6.25516">
        <ele>234.6</ele>
        <time>2023-11-27T09:52:37Z</time>
      </trkpt>
      <trkpt lat="43.51013" lon="6.25505">
        <ele>234.2</ele>
        <time>2023-11-27T09:53:42Z</time>
      </trkpt>
      <trkpt lat="43.51013" lon="6.25493">
        <ele>230.5</ele>
        <time>2023-11-27T09:53:54Z</time>
      </trkpt>
      <trkpt lat="43.51021" lon="6.25486">
        <ele>232.8</ele>
        <time>2023-11-27T09:54:19Z</time>
      </trkpt>
      <trkpt lat="43.51014" lon="6.25477">
        <ele>232.6</ele>
        <time>2023-11-27T09:55:10Z</time>
      </trkpt>
      <trkpt lat="43.51016" lon="6.25464">
        <ele>232.9</ele>
        <time>2023-11-27T09:55:23Z</time>
      </trkpt>
      <trkpt lat="43.51014" lon="6.25451">
        <ele>232</ele>
        <time>2023-11-27T09:55:33Z</time>
      </trkpt>
      <trkpt lat="43.51009" lon="6.2544">
        <ele>230.5</ele>
        <time>2023-11-27T09:55:43Z</time>
      </trkpt>
      <trkpt lat="43.51004" lon="6.25429">
        <ele>229.8</ele>
        <time>2023-11-27T09:55:53Z</time>
      </trkpt>
      <trkpt lat="43.50999" lon="6.25417">
        <ele>228.4</ele>
        <time>2023-11-27T09:56:09Z</time>
      </trkpt>
      <trkpt lat="43.50998" lon="6.25404">
        <ele>228.9</ele>
        <time>2023-11-27T09:56:26Z</time>
      </trkpt>
      <trkpt lat="43.50999" lon="6.25391">
        <ele>227.8</ele>
        <time>2023-11-27T09:56:35Z</time>
      </trkpt>
      <trkpt lat="43.51" lon="6.25378">
        <ele>226.2</ele>
        <time>2023-11-27T09:57:04Z</time>
      </trkpt>
      <trkpt lat="43.51004" lon="6.25366">
        <ele>226.1</ele>
        <time>2023-11-27T09:57:42Z</time>
      </trkpt>
      <trkpt lat="43.51006" lon="6.25353">
        <ele>226.1</ele>
        <time>2023-11-27T09:57:50Z</time>
      </trkpt>
      <trkpt lat="43.51007" lon="6.25341">
        <ele>224.9</ele>
        <time>2023-11-27T09:57:58Z</time>
      </trkpt>
      <trkpt lat="43.51004" lon="6.25329">
        <ele>224.9</ele>
        <time>2023-11-27T09:58:07Z</time>
      </trkpt>
      <trkpt lat="43.50997" lon="6.2532">
        <ele>224</ele>
        <time>2023-11-27T09:58:16Z</time>
      </trkpt>
      <trkpt lat="43.50988" lon="6.25315">
        <ele>222.1</ele>
        <time>2023-11-27T09:58:30Z</time>
      </trkpt>
      <trkpt lat="43.50984" lon="6.25304">
        <ele>216.9</ele>
        <time>2023-11-27T09:59:29Z</time>
      </trkpt>
      <trkpt lat="43.50978" lon="6.25294">
        <ele>220.6</ele>
        <time>2023-11-27T09:59:42Z</time>
      </trkpt>
      <trkpt lat="43.50974" lon="6.25282">
        <ele>216.8</ele>
        <time>2023-11-27T10:00:23Z</time>
      </trkpt>
      <trkpt lat="43.5097" lon="6.2527">
        <ele>215.1</ele>
        <time>2023-11-27T10:01:39Z</time>
      </trkpt>
      <trkpt lat="43.50968" lon="6.25258">
        <ele>212.4</ele>
        <time>2023-11-27T10:01:52Z</time>
      </trkpt>
      <trkpt lat="43.50965" lon="6.25246">
        <ele>211.8</ele>
        <time>2023-11-27T10:02:02Z</time>
      </trkpt>
      <trkpt lat="43.50965" lon="6.25233">
        <ele>210.4</ele>
        <time>2023-11-27T10:02:11Z</time>
      </trkpt>
      <trkpt lat="43.50966" lon="6.2522">
        <ele>207.8</ele>
        <time>2023-11-27T10:02:20Z</time>
      </trkpt>
      <trkpt lat="43.50967" lon="6.25207">
        <ele>205.4</ele>
        <time>2023-11-27T10:02:30Z</time>
      </trkpt>
      <trkpt lat="43.50968" lon="6.25195">
        <ele>203.7</ele>
        <time>2023-11-27T10:02:40Z</time>
      </trkpt>
      <trkpt lat="43.50967" lon="6.25182">
        <ele>200.7</ele>
        <time>2023-11-27T10:02:51Z</time>
      </trkpt>
      <trkpt lat="43.50965" lon="6.2517">
        <ele>199.2</ele>
        <time>2023-11-27T10:03:01Z</time>
      </trkpt>
      <trkpt lat="43.50966" lon="6.25157">
        <ele>197.6</ele>
        <time>2023-11-27T10:03:10Z</time>
      </trkpt>
      <trkpt lat="43.5096" lon="6.25146">
        <ele>195.5</ele>
        <time>2023-11-27T10:03:23Z</time>
      </trkpt>
      <trkpt lat="43.50953" lon="6.25137">
        <ele>194.5</ele>
        <time>2023-11-27T10:03:33Z</time>
      </trkpt>
      <trkpt lat="43.50949" lon="6.25125">
        <ele>194.4</ele>
        <time>2023-11-27T10:03:41Z</time>
      </trkpt>
      <trkpt lat="43.50948" lon="6.25111">
        <ele>193.8</ele>
        <time>2023-11-27T10:03:52Z</time>
      </trkpt>
      <trkpt lat="43.50945" lon="6.251">
        <ele>193.3</ele>
        <time>2023-11-27T10:04:02Z</time>
      </trkpt>
      <trkpt lat="43.50939" lon="6.25088">
        <ele>192.6</ele>
        <time>2023-11-27T10:04:12Z</time>
      </trkpt>
      <trkpt lat="43.50934" lon="6.25078">
        <ele>191.7</ele>
        <time>2023-11-27T10:04:23Z</time>
      </trkpt>
      <trkpt lat="43.5093" lon="6.25065">
        <ele>190.7</ele>
        <time>2023-11-27T10:04:37Z</time>
      </trkpt>
      <trkpt lat="43.50924" lon="6.25054">
        <ele>190.1</ele>
        <time>2023-11-27T10:04:46Z</time>
      </trkpt>
      <trkpt lat="43.5092" lon="6.25044">
        <ele>188.9</ele>
        <time>2023-11-27T10:04:57Z</time>
      </trkpt>
      <trkpt lat="43.50914" lon="6.25033">
        <ele>187.9</ele>
        <time>2023-11-27T10:05:07Z</time>
      </trkpt>
      <trkpt lat="43.50908" lon="6.25023">
        <ele>186.5</ele>
        <time>2023-11-27T10:05:18Z</time>
      </trkpt>
      <trkpt lat="43.509" lon="6.25016">
        <ele>185.8</ele>
        <time>2023-11-27T10:05:26Z</time>
      </trkpt>
      <trkpt lat="43.50896" lon="6.25005">
        <ele>185.2</ele>
        <time>2023-11-27T10:05:39Z</time>
      </trkpt>
      <trkpt lat="43.50891" lon="6.24994">
        <ele>184.6</ele>
        <time>2023-11-27T10:05:50Z</time>
      </trkpt>
      <trkpt lat="43.50884" lon="6.24984">
        <ele>183.9</ele>
        <time>2023-11-27T10:05:59Z</time>
      </trkpt>
      <trkpt lat="43.50882" lon="6.24972">
        <ele>183.4</ele>
        <time>2023-11-27T10:06:07Z</time>
      </trkpt>
      <trkpt lat="43.50883" lon="6.24959">
        <ele>182.2</ele>
        <time>2023-11-27T10:06:18Z</time>
      </trkpt>
      <trkpt lat="43.50889" lon="6.24948">
        <ele>180.9</ele>
        <time>2023-11-27T10:06:26Z</time>
      </trkpt>
      <trkpt lat="43.50893" lon="6.24936">
        <ele>180.2</ele>
        <time>2023-11-27T10:06:36Z</time>
      </trkpt>
      <trkpt lat="43.50896" lon="6.24923">
        <ele>180</ele>
        <time>2023-11-27T10:06:44Z</time>
      </trkpt>
      <trkpt lat="43.50896" lon="6.24909">
        <ele>179.1</ele>
        <time>2023-11-27T10:06:52Z</time>
      </trkpt>
      <trkpt lat="43.50893" lon="6.24898">
        <ele>179</ele>
        <time>2023-11-27T10:07:08Z</time>
      </trkpt>
      <trkpt lat="43.50901" lon="6.24894">
        <ele>179.6</ele>
        <time>2023-11-27T10:07:51Z</time>
      </trkpt>
      <trkpt lat="43.50894" lon="6.24903">
        <ele>180</ele>
        <time>2023-11-27T10:09:18Z</time>
      </trkpt>
      <trkpt lat="43.50895" lon="6.2489">
        <ele>180.6</ele>
        <time>2023-11-27T10:09:30Z</time>
      </trkpt>
      <trkpt lat="43.50899" lon="6.24877">
        <ele>181.1</ele>
        <time>2023-11-27T10:09:38Z</time>
      </trkpt>
      <trkpt lat="43.50897" lon="6.24864">
        <ele>182.1</ele>
        <time>2023-11-27T10:09:50Z</time>
      </trkpt>
      <trkpt lat="43.50902" lon="6.24852">
        <ele>182.4</ele>
        <time>2023-11-27T10:09:55Z</time>
      </trkpt>
      <trkpt lat="43.50907" lon="6.2484">
        <ele>182.9</ele>
        <time>2023-11-27T10:10:02Z</time>
      </trkpt>
      <trkpt lat="43.50909" lon="6.24827">
        <ele>183.5</ele>
        <time>2023-11-27T10:10:10Z</time>
      </trkpt>
      <trkpt lat="43.50906" lon="6.24815">
        <ele>184</ele>
        <time>2023-11-27T10:10:19Z</time>
      </trkpt>
      <trkpt lat="43.50902" lon="6.24802">
        <ele>184.5</ele>
        <time>2023-11-27T10:10:27Z</time>
      </trkpt>
      <trkpt lat="43.50894" lon="6.24794">
        <ele>185.2</ele>
        <time>2023-11-27T10:10:36Z</time>
      </trkpt>
      <trkpt lat="43.50886" lon="6.24786">
        <ele>185.9</ele>
        <time>2023-11-27T10:10:46Z</time>
      </trkpt>
      <trkpt lat="43.50879" lon="6.24778">
        <ele>187.1</ele>
        <time>2023-11-27T10:10:56Z</time>
      </trkpt>
      <trkpt lat="43.50871" lon="6.24769">
        <ele>187.9</ele>
        <time>2023-11-27T10:11:07Z</time>
      </trkpt>
      <trkpt lat="43.50862" lon="6.24763">
        <ele>188.4</ele>
        <time>2023-11-27T10:11:16Z</time>
      </trkpt>
      <trkpt lat="43.50855" lon="6.24756">
        <ele>189</ele>
        <time>2023-11-27T10:11:29Z</time>
      </trkpt>
      <trkpt lat="43.50847" lon="6.24749">
        <ele>189.6</ele>
        <time>2023-11-27T10:11:39Z</time>
      </trkpt>
      <trkpt lat="43.50839" lon="6.24744">
        <ele>190.4</ele>
        <time>2023-11-27T10:11:50Z</time>
      </trkpt>
      <trkpt lat="43.5083" lon="6.24737">
        <ele>191</ele>
        <time>2023-11-27T10:12:04Z</time>
      </trkpt>
      <trkpt lat="43.50822" lon="6.2473">
        <ele>191.5</ele>
        <time>2023-11-27T10:12:14Z</time>
      </trkpt>
      <trkpt lat="43.50813" lon="6.24727">
        <ele>192.2</ele>
        <time>2023-11-27T10:12:23Z</time>
      </trkpt>
      <trkpt lat="43.50804" lon="6.2473">
        <ele>192.8</ele>
        <time>2023-11-27T10:12:36Z</time>
      </trkpt>
      <trkpt lat="43.50795" lon="6.24733">
        <ele>193.5</ele>
        <time>2023-11-27T10:12:46Z</time>
      </trkpt>
      <trkpt lat="43.50786" lon="6.24737">
        <ele>194.1</ele>
        <time>2023-11-27T10:12:56Z</time>
      </trkpt>
      <trkpt lat="43.50777" lon="6.24744">
        <ele>195.2</ele>
        <time>2023-11-27T10:13:28Z</time>
      </trkpt>
      <trkpt lat="43.50768" lon="6.2475">
        <ele>195.3</ele>
        <time>2023-11-27T10:13:36Z</time>
      </trkpt>
      <trkpt lat="43.50758" lon="6.24753">
        <ele>195.7</ele>
        <time>2023-11-27T10:13:46Z</time>
      </trkpt>
      <trkpt lat="43.5075" lon="6.24759">
        <ele>196.3</ele>
        <time>2023-11-27T10:13:55Z</time>
      </trkpt>
      <trkpt lat="43.50741" lon="6.24766">
        <ele>196.9</ele>
        <time>2023-11-27T10:14:04Z</time>
      </trkpt>
      <trkpt lat="43.50733" lon="6.24774">
        <ele>197.3</ele>
        <time>2023-11-27T10:14:12Z</time>
      </trkpt>
      <trkpt lat="43.50726" lon="6.24783">
        <ele>197.5</ele>
        <time>2023-11-27T10:14:25Z</time>
      </trkpt>
      <trkpt lat="43.5072" lon="6.24794">
        <ele>198.9</ele>
        <time>2023-11-27T10:14:35Z</time>
      </trkpt>
      <trkpt lat="43.50715" lon="6.24806">
        <ele>199.2</ele>
        <time>2023-11-27T10:14:44Z</time>
      </trkpt>
      <trkpt lat="43.50711" lon="6.24817">
        <ele>199.4</ele>
        <time>2023-11-27T10:14:52Z</time>
      </trkpt>
      <trkpt lat="43.50705" lon="6.24828">
        <ele>200.7</ele>
        <time>2023-11-27T10:15:04Z</time>
      </trkpt>
      <trkpt lat="43.50699" lon="6.24838">
        <ele>201.9</ele>
        <time>2023-11-27T10:15:13Z</time>
      </trkpt>
      <trkpt lat="43.50698" lon="6.2485">
        <ele>202.6</ele>
        <time>2023-11-27T10:15:35Z</time>
      </trkpt>
      <trkpt lat="43.50691" lon="6.2486">
        <ele>203.1</ele>
        <time>2023-11-27T10:15:52Z</time>
      </trkpt>
      <trkpt lat="43.50685" lon="6.24869">
        <ele>205.2</ele>
        <time>2023-11-27T10:16:01Z</time>
      </trkpt>
      <trkpt lat="43.50679" lon="6.24879">
        <ele>205</ele>
        <time>2023-11-27T10:16:18Z</time>
      </trkpt>
      <trkpt lat="43.50672" lon="6.24889">
        <ele>205.7</ele>
        <time>2023-11-27T10:16:28Z</time>
      </trkpt>
      <trkpt lat="43.5067" lon="6.24902">
        <ele>207.5</ele>
        <time>2023-11-27T10:18:13Z</time>
      </trkpt>
      <trkpt lat="43.50664" lon="6.24913">
        <ele>208.5</ele>
        <time>2023-11-27T10:18:23Z</time>
      </trkpt>
      <trkpt lat="43.5066" lon="6.24924">
        <ele>209.7</ele>
        <time>2023-11-27T10:18:33Z</time>
      </trkpt>
      <trkpt lat="43.50655" lon="6.24934">
        <ele>210.9</ele>
        <time>2023-11-27T10:18:41Z</time>
      </trkpt>
      <trkpt lat="43.50648" lon="6.24944">
        <ele>212</ele>
        <time>2023-11-27T10:18:51Z</time>
      </trkpt>
      <trkpt lat="43.50642" lon="6.24954">
        <ele>213.1</ele>
        <time>2023-11-27T10:19:08Z</time>
      </trkpt>
      <trkpt lat="43.50636" lon="6.24964">
        <ele>213.7</ele>
        <time>2023-11-27T10:19:18Z</time>
      </trkpt>
      <trkpt lat="43.50633" lon="6.24975">
        <ele>214.5</ele>
        <time>2023-11-27T10:19:28Z</time>
      </trkpt>
      <trkpt lat="43.50626" lon="6.24985">
        <ele>215.7</ele>
        <time>2023-11-27T10:19:52Z</time>
      </trkpt>
      <trkpt lat="43.5062" lon="6.24994">
        <ele>216.5</ele>
        <time>2023-11-27T10:20:02Z</time>
      </trkpt>
      <trkpt lat="43.50613" lon="6.25004">
        <ele>217.3</ele>
        <time>2023-11-27T10:20:11Z</time>
      </trkpt>
      <trkpt lat="43.50607" lon="6.25014">
        <ele>217.8</ele>
        <time>2023-11-27T10:20:21Z</time>
      </trkpt>
      <trkpt lat="43.50601" lon="6.25023">
        <ele>219</ele>
        <time>2023-11-27T10:20:59Z</time>
      </trkpt>
      <trkpt lat="43.50594" lon="6.25033">
        <ele>219.5</ele>
        <time>2023-11-27T10:21:11Z</time>
      </trkpt>
      <trkpt lat="43.50588" lon="6.25043">
        <ele>219.7</ele>
        <time>2023-11-27T10:21:22Z</time>
      </trkpt>
      <trkpt lat="43.50581" lon="6.25052">
        <ele>219.7</ele>
        <time>2023-11-27T10:21:32Z</time>
      </trkpt>
      <trkpt lat="43.50573" lon="6.2506">
        <ele>219.6</ele>
        <time>2023-11-27T10:21:41Z</time>
      </trkpt>
      <trkpt lat="43.50564" lon="6.25064">
        <ele>219.4</ele>
        <time>2023-11-27T10:21:52Z</time>
      </trkpt>
      <trkpt lat="43.50555" lon="6.25067">
        <ele>219.5</ele>
        <time>2023-11-27T10:22:00Z</time>
      </trkpt>
      <trkpt lat="43.50547" lon="6.25071">
        <ele>219</ele>
        <time>2023-11-27T10:22:08Z</time>
      </trkpt>
      <trkpt lat="43.50539" lon="6.25079">
        <ele>218.7</ele>
        <time>2023-11-27T10:22:16Z</time>
      </trkpt>
      <trkpt lat="43.50532" lon="6.25089">
        <ele>218.5</ele>
        <time>2023-11-27T10:22:26Z</time>
      </trkpt>
      <trkpt lat="43.50528" lon="6.25101">
        <ele>216.7</ele>
        <time>2023-11-27T10:23:27Z</time>
      </trkpt>
      <trkpt lat="43.50523" lon="6.25111">
        <ele>216.1</ele>
        <time>2023-11-27T10:23:35Z</time>
      </trkpt>
      <trkpt lat="43.50519" lon="6.25124">
        <ele>215.9</ele>
        <time>2023-11-27T10:23:43Z</time>
      </trkpt>
      <trkpt lat="43.50515" lon="6.25136">
        <ele>215.3</ele>
        <time>2023-11-27T10:23:51Z</time>
      </trkpt>
      <trkpt lat="43.50509" lon="6.25147">
        <ele>215.1</ele>
        <time>2023-11-27T10:23:59Z</time>
      </trkpt>
      <trkpt lat="43.50503" lon="6.25156">
        <ele>215</ele>
        <time>2023-11-27T10:24:06Z</time>
      </trkpt>
      <trkpt lat="43.50496" lon="6.25166">
        <ele>214.7</ele>
        <time>2023-11-27T10:24:14Z</time>
      </trkpt>
      <trkpt lat="43.50491" lon="6.25176">
        <ele>214.4</ele>
        <time>2023-11-27T10:24:50Z</time>
      </trkpt>
      <trkpt lat="43.50484" lon="6.25184">
        <ele>214.1</ele>
        <time>2023-11-27T10:24:59Z</time>
      </trkpt>
      <trkpt lat="43.50477" lon="6.25193">
        <ele>214.4</ele>
        <time>2023-11-27T10:25:08Z</time>
      </trkpt>
      <trkpt lat="43.50469" lon="6.25201">
        <ele>214.4</ele>
        <time>2023-11-27T10:25:18Z</time>
      </trkpt>
      <trkpt lat="43.50463" lon="6.25211">
        <ele>213.9</ele>
        <time>2023-11-27T10:25:58Z</time>
      </trkpt>
      <trkpt lat="43.50462" lon="6.25224">
        <ele>213.4</ele>
        <time>2023-11-27T10:26:10Z</time>
      </trkpt>
      <trkpt lat="43.50459" lon="6.25237">
        <ele>213.4</ele>
        <time>2023-11-27T10:26:20Z</time>
      </trkpt>
      <trkpt lat="43.50455" lon="6.25249">
        <ele>212.2</ele>
        <time>2023-11-27T10:26:53Z</time>
      </trkpt>
      <trkpt lat="43.50452" lon="6.25261">
        <ele>212.5</ele>
        <time>2023-11-27T10:27:02Z</time>
      </trkpt>
      <trkpt lat="43.50447" lon="6.25272">
        <ele>211.3</ele>
        <time>2023-11-27T10:27:14Z</time>
      </trkpt>
      <trkpt lat="43.50438" lon="6.25274">
        <ele>209.1</ele>
        <time>2023-11-27T10:27:28Z</time>
      </trkpt>
      <trkpt lat="43.50446" lon="6.25279">
        <ele>209.2</ele>
        <time>2023-11-27T10:29:19Z</time>
      </trkpt>
      <trkpt lat="43.50444" lon="6.25292">
        <ele>208.9</ele>
        <time>2023-11-27T10:29:55Z</time>
      </trkpt>
      <trkpt lat="43.50441" lon="6.25304">
        <ele>208.5</ele>
        <time>2023-11-27T10:30:05Z</time>
      </trkpt>
      <trkpt lat="43.50437" lon="6.25316">
        <ele>208.6</ele>
        <time>2023-11-27T10:30:13Z</time>
      </trkpt>
      <trkpt lat="43.50433" lon="6.25329">
        <ele>208.5</ele>
        <time>2023-11-27T10:30:21Z</time>
      </trkpt>
      <trkpt lat="43.50428" lon="6.25341">
        <ele>208.4</ele>
        <time>2023-11-27T10:30:29Z</time>
      </trkpt>
      <trkpt lat="43.50426" lon="6.25354">
        <ele>208.4</ele>
        <time>2023-11-27T10:30:38Z</time>
      </trkpt>
      <trkpt lat="43.50422" lon="6.25366">
        <ele>208.4</ele>
        <time>2023-11-27T10:30:47Z</time>
      </trkpt>
      <trkpt lat="43.5042" lon="6.25379">
        <ele>208.6</ele>
        <time>2023-11-27T10:30:57Z</time>
      </trkpt>
      <trkpt lat="43.50417" lon="6.25391">
        <ele>208.4</ele>
        <time>2023-11-27T10:31:06Z</time>
      </trkpt>
      <trkpt lat="43.50414" lon="6.25404">
        <ele>208.5</ele>
        <time>2023-11-27T10:31:16Z</time>
      </trkpt>
      <trkpt lat="43.50411" lon="6.25415">
        <ele>208.3</ele>
        <time>2023-11-27T10:31:26Z</time>
      </trkpt>
      <trkpt lat="43.50408" lon="6.25428">
        <ele>207.8</ele>
        <time>2023-11-27T10:31:38Z</time>
      </trkpt>
      <trkpt lat="43.50405" lon="6.2544">
        <ele>206.8</ele>
        <time>2023-11-27T10:31:50Z</time>
      </trkpt>
      <trkpt lat="43.50403" lon="6.25452">
        <ele>205.7</ele>
        <time>2023-11-27T10:32:02Z</time>
      </trkpt>
      <trkpt lat="43.504" lon="6.25464">
        <ele>204.9</ele>
        <time>2023-11-27T10:32:13Z</time>
      </trkpt>
      <trkpt lat="43.50398" lon="6.25477">
        <ele>202.8</ele>
        <time>2023-11-27T10:32:44Z</time>
      </trkpt>
      <trkpt lat="43.50394" lon="6.25489">
        <ele>201.7</ele>
        <time>2023-11-27T10:32:55Z</time>
      </trkpt>
      <trkpt lat="43.50388" lon="6.25498">
        <ele>200.5</ele>
        <time>2023-11-27T10:33:27Z</time>
      </trkpt>
      <trkpt lat="43.50382" lon="6.25509">
        <ele>200.2</ele>
        <time>2023-11-27T10:33:38Z</time>
      </trkpt>
      <trkpt lat="43.50374" lon="6.25517">
        <ele>199.3</ele>
        <time>2023-11-27T10:33:47Z</time>
      </trkpt>
      <trkpt lat="43.50365" lon="6.25522">
        <ele>198.7</ele>
        <time>2023-11-27T10:33:56Z</time>
      </trkpt>
      <trkpt lat="43.50357" lon="6.25529">
        <ele>197.7</ele>
        <time>2023-11-27T10:34:05Z</time>
      </trkpt>
      <trkpt lat="43.50349" lon="6.25534">
        <ele>196.6</ele>
        <time>2023-11-27T10:34:14Z</time>
      </trkpt>
      <trkpt lat="43.5034" lon="6.2554">
        <ele>195.6</ele>
        <time>2023-11-27T10:34:23Z</time>
      </trkpt>
      <trkpt lat="43.50332" lon="6.25546">
        <ele>194.8</ele>
        <time>2023-11-27T10:34:32Z</time>
      </trkpt>
      <trkpt lat="43.50326" lon="6.25556">
        <ele>193.9</ele>
        <time>2023-11-27T10:34:45Z</time>
      </trkpt>
      <trkpt lat="43.5032" lon="6.25567">
        <ele>193.4</ele>
        <time>2023-11-27T10:34:54Z</time>
      </trkpt>
      <trkpt lat="43.50312" lon="6.25573">
        <ele>192.1</ele>
        <time>2023-11-27T10:35:05Z</time>
      </trkpt>
      <trkpt lat="43.50307" lon="6.25584">
        <ele>191.5</ele>
        <time>2023-11-27T10:35:28Z</time>
      </trkpt>
      <trkpt lat="43.50304" lon="6.25596">
        <ele>189.5</ele>
        <time>2023-11-27T10:35:38Z</time>
      </trkpt>
      <trkpt lat="43.50301" lon="6.25608">
        <ele>188.1</ele>
        <time>2023-11-27T10:35:50Z</time>
      </trkpt>
      <trkpt lat="43.50298" lon="6.25621">
        <ele>187.3</ele>
        <time>2023-11-27T10:36:01Z</time>
      </trkpt>
      <trkpt lat="43.50295" lon="6.25634">
        <ele>185.8</ele>
        <time>2023-11-27T10:36:12Z</time>
      </trkpt>
      <trkpt lat="43.50293" lon="6.25647">
        <ele>186.1</ele>
        <time>2023-11-27T10:36:21Z</time>
      </trkpt>
      <trkpt lat="43.50291" lon="6.25661">
        <ele>185.8</ele>
        <time>2023-11-27T10:36:32Z</time>
      </trkpt>
      <trkpt lat="43.50288" lon="6.25673">
        <ele>186.4</ele>
        <time>2023-11-27T10:36:40Z</time>
      </trkpt>
      <trkpt lat="43.50286" lon="6.25685">
        <ele>186.6</ele>
        <time>2023-11-27T10:36:59Z</time>
      </trkpt>
      <trkpt lat="43.50281" lon="6.25696">
        <ele>186.6</ele>
        <time>2023-11-27T10:37:07Z</time>
      </trkpt>
      <trkpt lat="43.50275" lon="6.25707">
        <ele>186.3</ele>
        <time>2023-11-27T10:37:16Z</time>
      </trkpt>
      <trkpt lat="43.50269" lon="6.25717">
        <ele>185.4</ele>
        <time>2023-11-27T10:37:25Z</time>
      </trkpt>
      <trkpt lat="43.50263" lon="6.25727">
        <ele>185</ele>
        <time>2023-11-27T10:37:34Z</time>
      </trkpt>
      <trkpt lat="43.50258" lon="6.25737">
        <ele>184.6</ele>
        <time>2023-11-27T10:37:43Z</time>
      </trkpt>
      <trkpt lat="43.50252" lon="6.25749">
        <ele>184.3</ele>
        <time>2023-11-27T10:37:52Z</time>
      </trkpt>
      <trkpt lat="43.50248" lon="6.2576">
        <ele>183.8</ele>
        <time>2023-11-27T10:38:02Z</time>
      </trkpt>
      <trkpt lat="43.50253" lon="6.25771">
        <ele>183.8</ele>
        <time>2023-11-27T10:38:20Z</time>
      </trkpt>
      <trkpt lat="43.50245" lon="6.25779">
        <ele>183.9</ele>
        <time>2023-11-27T10:39:14Z</time>
      </trkpt>
      <trkpt lat="43.50242" lon="6.25791">
        <ele>184.4</ele>
        <time>2023-11-27T10:39:24Z</time>
      </trkpt>
      <trkpt lat="43.50239" lon="6.25804">
        <ele>186.2</ele>
        <time>2023-11-27T10:39:33Z</time>
      </trkpt>
      <trkpt lat="43.50236" lon="6.25818">
        <ele>186.9</ele>
        <time>2023-11-27T10:39:42Z</time>
      </trkpt>
      <trkpt lat="43.50233" lon="6.2583">
        <ele>187.9</ele>
        <time>2023-11-27T10:39:51Z</time>
      </trkpt>
      <trkpt lat="43.50229" lon="6.25842">
        <ele>188.6</ele>
        <time>2023-11-27T10:40:00Z</time>
      </trkpt>
      <trkpt lat="43.50226" lon="6.25854">
        <ele>189.6</ele>
        <time>2023-11-27T10:40:10Z</time>
      </trkpt>
      <trkpt lat="43.50223" lon="6.25867">
        <ele>190.4</ele>
        <time>2023-11-27T10:40:19Z</time>
      </trkpt>
      <trkpt lat="43.50216" lon="6.25874">
        <ele>190.8</ele>
        <time>2023-11-27T10:40:28Z</time>
      </trkpt>
      <trkpt lat="43.50209" lon="6.25883">
        <ele>191.3</ele>
        <time>2023-11-27T10:40:37Z</time>
      </trkpt>
      <trkpt lat="43.50206" lon="6.25895">
        <ele>191.9</ele>
        <time>2023-11-27T10:40:46Z</time>
      </trkpt>
      <trkpt lat="43.50202" lon="6.25907">
        <ele>193.2</ele>
        <time>2023-11-27T10:40:56Z</time>
      </trkpt>
      <trkpt lat="43.50199" lon="6.25919">
        <ele>194.4</ele>
        <time>2023-11-27T10:41:06Z</time>
      </trkpt>
      <trkpt lat="43.50197" lon="6.25932">
        <ele>195.5</ele>
        <time>2023-11-27T10:41:16Z</time>
      </trkpt>
      <trkpt lat="43.50196" lon="6.25944">
        <ele>196.1</ele>
        <time>2023-11-27T10:41:25Z</time>
      </trkpt>
      <trkpt lat="43.50196" lon="6.25957">
        <ele>197</ele>
        <time>2023-11-27T10:41:36Z</time>
      </trkpt>
      <trkpt lat="43.50192" lon="6.25969">
        <ele>197.7</ele>
        <time>2023-11-27T10:41:46Z</time>
      </trkpt>
      <trkpt lat="43.50189" lon="6.25981">
        <ele>198.1</ele>
        <time>2023-11-27T10:41:55Z</time>
      </trkpt>
      <trkpt lat="43.50187" lon="6.25993">
        <ele>198.5</ele>
        <time>2023-11-27T10:42:03Z</time>
      </trkpt>
      <trkpt lat="43.50187" lon="6.26007">
        <ele>198.9</ele>
        <time>2023-11-27T10:42:13Z</time>
      </trkpt>
      <trkpt lat="43.50186" lon="6.2602">
        <ele>199.6</ele>
        <time>2023-11-27T10:42:23Z</time>
      </trkpt>
      <trkpt lat="43.50185" lon="6.26033">
        <ele>200.5</ele>
        <time>2023-11-27T10:42:34Z</time>
      </trkpt>
      <trkpt lat="43.50185" lon="6.26046">
        <ele>200.9</ele>
        <time>2023-11-27T10:42:44Z</time>
      </trkpt>
      <trkpt lat="43.50184" lon="6.26058">
        <ele>201.9</ele>
        <time>2023-11-27T10:42:53Z</time>
      </trkpt>
      <trkpt lat="43.50183" lon="6.26071">
        <ele>203</ele>
        <time>2023-11-27T10:43:02Z</time>
      </trkpt>
      <trkpt lat="43.50182" lon="6.26084">
        <ele>204</ele>
        <time>2023-11-27T10:43:13Z</time>
      </trkpt>
      <trkpt lat="43.50181" lon="6.26096">
        <ele>205.3</ele>
        <time>2023-11-27T10:43:27Z</time>
      </trkpt>
      <trkpt lat="43.50179" lon="6.26109">
        <ele>206.4</ele>
        <time>2023-11-27T10:43:39Z</time>
      </trkpt>
      <trkpt lat="43.50178" lon="6.26122">
        <ele>207.2</ele>
        <time>2023-11-27T10:43:50Z</time>
      </trkpt>
      <trkpt lat="43.50177" lon="6.26135">
        <ele>208.5</ele>
        <time>2023-11-27T10:44:02Z</time>
      </trkpt>
      <trkpt lat="43.50175" lon="6.26148">
        <ele>210.1</ele>
        <time>2023-11-27T10:44:17Z</time>
      </trkpt>
      <trkpt lat="43.50178" lon="6.2616">
        <ele>211.8</ele>
        <time>2023-11-27T10:44:32Z</time>
      </trkpt>
      <trkpt lat="43.50176" lon="6.26172">
        <ele>213.8</ele>
        <time>2023-11-27T10:45:02Z</time>
      </trkpt>
      <trkpt lat="43.50175" lon="6.26184">
        <ele>215.3</ele>
        <time>2023-11-27T10:48:50Z</time>
      </trkpt>
      <trkpt lat="43.50175" lon="6.26197">
        <ele>216.6</ele>
        <time>2023-11-27T10:49:03Z</time>
      </trkpt>
      <trkpt lat="43.50177" lon="6.26209">
        <ele>218.9</ele>
        <time>2023-11-27T10:49:16Z</time>
      </trkpt>
      <trkpt lat="43.50178" lon="6.26222">
        <ele>220.1</ele>
        <time>2023-11-27T10:49:29Z</time>
      </trkpt>
      <trkpt lat="43.5018" lon="6.26234">
        <ele>221.7</ele>
        <time>2023-11-27T10:49:42Z</time>
      </trkpt>
      <trkpt lat="43.50183" lon="6.26246">
        <ele>223.3</ele>
        <time>2023-11-27T10:49:54Z</time>
      </trkpt>
      <trkpt lat="43.50186" lon="6.26257">
        <ele>224.6</ele>
        <time>2023-11-27T10:50:09Z</time>
      </trkpt>
      <trkpt lat="43.50187" lon="6.2627">
        <ele>225.7</ele>
        <time>2023-11-27T10:50:24Z</time>
      </trkpt>
      <trkpt lat="43.50189" lon="6.26283">
        <ele>226.5</ele>
        <time>2023-11-27T10:50:37Z</time>
      </trkpt>
      <trkpt lat="43.50188" lon="6.26296">
        <ele>227.6</ele>
        <time>2023-11-27T10:50:49Z</time>
      </trkpt>
      <trkpt lat="43.50187" lon="6.26309">
        <ele>228.5</ele>
        <time>2023-11-27T10:51:00Z</time>
      </trkpt>
      <trkpt lat="43.50186" lon="6.26322">
        <ele>229.2</ele>
        <time>2023-11-27T10:51:11Z</time>
      </trkpt>
      <trkpt lat="43.50187" lon="6.26335">
        <ele>230.1</ele>
        <time>2023-11-27T10:51:23Z</time>
      </trkpt>
      <trkpt lat="43.50185" lon="6.26348">
        <ele>230.3</ele>
        <time>2023-11-27T10:51:36Z</time>
      </trkpt>
      <trkpt lat="43.50181" lon="6.2636">
        <ele>230.1</ele>
        <time>2023-11-27T10:51:47Z</time>
      </trkpt>
      <trkpt lat="43.50179" lon="6.26373">
        <ele>229.7</ele>
        <time>2023-11-27T10:51:58Z</time>
      </trkpt>
      <trkpt lat="43.50178" lon="6.26386">
        <ele>228.7</ele>
        <time>2023-11-27T10:52:09Z</time>
      </trkpt>
      <trkpt lat="43.50176" lon="6.26399">
        <ele>227.6</ele>
        <time>2023-11-27T10:52:21Z</time>
      </trkpt>
      <trkpt lat="43.50174" lon="6.26412">
        <ele>226.7</ele>
        <time>2023-11-27T10:52:32Z</time>
      </trkpt>
      <trkpt lat="43.50172" lon="6.26425">
        <ele>225.7</ele>
        <time>2023-11-27T10:52:42Z</time>
      </trkpt>
      <trkpt lat="43.50171" lon="6.26438">
        <ele>224.6</ele>
        <time>2023-11-27T10:52:55Z</time>
      </trkpt>
      <trkpt lat="43.50172" lon="6.26451">
        <ele>223.7</ele>
        <time>2023-11-27T10:53:07Z</time>
      </trkpt>
      <trkpt lat="43.50174" lon="6.26465">
        <ele>222.7</ele>
        <time>2023-11-27T10:53:19Z</time>
      </trkpt>
      <trkpt lat="43.50175" lon="6.26477">
        <ele>221.7</ele>
        <time>2023-11-27T10:53:31Z</time>
      </trkpt>
      <trkpt lat="43.50174" lon="6.26489">
        <ele>221.8</ele>
        <time>2023-11-27T10:55:05Z</time>
      </trkpt>
      <trkpt lat="43.5017" lon="6.26477">
        <ele>222.5</ele>
        <time>2023-11-27T10:57:28Z</time>
      </trkpt>
      <trkpt lat="43.50168" lon="6.26465">
        <ele>223.7</ele>
        <time>2023-11-27T10:57:41Z</time>
      </trkpt>
      <trkpt lat="43.50167" lon="6.26452">
        <ele>225.5</ele>
        <time>2023-11-27T10:57:51Z</time>
      </trkpt>
      <trkpt lat="43.50169" lon="6.26439">
        <ele>226.1</ele>
        <time>2023-11-27T10:58:02Z</time>
      </trkpt>
      <trkpt lat="43.50168" lon="6.26452">
        <ele>225.1</ele>
        <time>2023-11-27T10:59:13Z</time>
      </trkpt>
      <trkpt lat="43.50169" lon="6.26465">
        <ele>224.3</ele>
        <time>2023-11-27T10:59:25Z</time>
      </trkpt>
      <trkpt lat="43.5017" lon="6.26477">
        <ele>223.3</ele>
        <time>2023-11-27T10:59:36Z</time>
      </trkpt>
      <trkpt lat="43.50173" lon="6.2649">
        <ele>222.5</ele>
        <time>2023-11-27T10:59:52Z</time>
      </trkpt>
      <trkpt lat="43.50173" lon="6.26503">
        <ele>221.4</ele>
        <time>2023-11-27T11:00:04Z</time>
      </trkpt>
      <trkpt lat="43.50172" lon="6.26516">
        <ele>220.5</ele>
        <time>2023-11-27T11:00:22Z</time>
      </trkpt>
      <trkpt lat="43.50175" lon="6.26527">
        <ele>218.7</ele>
        <time>2023-11-27T11:00:50Z</time>
      </trkpt>
      <trkpt lat="43.5017" lon="6.26538">
        <ele>219.8</ele>
        <time>2023-11-27T11:01:47Z</time>
      </trkpt>
      <trkpt lat="43.50167" lon="6.26551">
        <ele>219</ele>
        <time>2023-11-27T11:01:58Z</time>
      </trkpt>
      <trkpt lat="43.50168" lon="6.26564">
        <ele>218.2</ele>
        <time>2023-11-27T11:02:09Z</time>
      </trkpt>
      <trkpt lat="43.50166" lon="6.26577">
        <ele>217.7</ele>
        <time>2023-11-27T11:02:19Z</time>
      </trkpt>
      <trkpt lat="43.50164" lon="6.26589">
        <ele>217.2</ele>
        <time>2023-11-27T11:02:28Z</time>
      </trkpt>
      <trkpt lat="43.50163" lon="6.26602">
        <ele>216.7</ele>
        <time>2023-11-27T11:02:38Z</time>
      </trkpt>
      <trkpt lat="43.50161" lon="6.26615">
        <ele>216.2</ele>
        <time>2023-11-27T11:02:48Z</time>
      </trkpt>
      <trkpt lat="43.50161" lon="6.26629">
        <ele>214.8</ele>
        <time>2023-11-27T11:03:00Z</time>
      </trkpt>
      <trkpt lat="43.5016" lon="6.26642">
        <ele>214.1</ele>
        <time>2023-11-27T11:03:10Z</time>
      </trkpt>
      <trkpt lat="43.50158" lon="6.26655">
        <ele>213.1</ele>
        <time>2023-11-27T11:03:22Z</time>
      </trkpt>
      <trkpt lat="43.50155" lon="6.26666">
        <ele>212.3</ele>
        <time>2023-11-27T11:03:31Z</time>
      </trkpt>
      <trkpt lat="43.50151" lon="6.26678">
        <ele>211.6</ele>
        <time>2023-11-27T11:03:42Z</time>
      </trkpt>
      <trkpt lat="43.50149" lon="6.26692">
        <ele>210.9</ele>
        <time>2023-11-27T11:03:53Z</time>
      </trkpt>
      <trkpt lat="43.50148" lon="6.26704">
        <ele>210.1</ele>
        <time>2023-11-27T11:04:12Z</time>
      </trkpt>
      <trkpt lat="43.50146" lon="6.26717">
        <ele>209.7</ele>
        <time>2023-11-27T11:04:27Z</time>
      </trkpt>
      <trkpt lat="43.50142" lon="6.26728">
        <ele>209.5</ele>
        <time>2023-11-27T11:04:37Z</time>
      </trkpt>
      <trkpt lat="43.50138" lon="6.2674">
        <ele>209.2</ele>
        <time>2023-11-27T11:04:48Z</time>
      </trkpt>
      <trkpt lat="43.50134" lon="6.26753">
        <ele>208.6</ele>
        <time>2023-11-27T11:04:59Z</time>
      </trkpt>
      <trkpt lat="43.50129" lon="6.26763">
        <ele>208.1</ele>
        <time>2023-11-27T11:05:10Z</time>
      </trkpt>
      <trkpt lat="43.50127" lon="6.26776">
        <ele>207.2</ele>
        <time>2023-11-27T11:05:26Z</time>
      </trkpt>
      <trkpt lat="43.50125" lon="6.26789">
        <ele>206.5</ele>
        <time>2023-11-27T11:05:37Z</time>
      </trkpt>
      <trkpt lat="43.5012" lon="6.26799">
        <ele>206</ele>
        <time>2023-11-27T11:05:48Z</time>
      </trkpt>
      <trkpt lat="43.50118" lon="6.26812">
        <ele>204.8</ele>
        <time>2023-11-27T11:06:04Z</time>
      </trkpt>
      <trkpt lat="43.50115" lon="6.26824">
        <ele>203.8</ele>
        <time>2023-11-27T11:06:15Z</time>
      </trkpt>
      <trkpt lat="43.50114" lon="6.26837">
        <ele>202.1</ele>
        <time>2023-11-27T11:06:26Z</time>
      </trkpt>
      <trkpt lat="43.5011" lon="6.26849">
        <ele>201.5</ele>
        <time>2023-11-27T11:06:36Z</time>
      </trkpt>
      <trkpt lat="43.50107" lon="6.26861">
        <ele>200.7</ele>
        <time>2023-11-27T11:06:44Z</time>
      </trkpt>
      <trkpt lat="43.50107" lon="6.26874">
        <ele>200.4</ele>
        <time>2023-11-27T11:06:51Z</time>
      </trkpt>
      <trkpt lat="43.50106" lon="6.26888">
        <ele>200</ele>
        <time>2023-11-27T11:06:58Z</time>
      </trkpt>
      <trkpt lat="43.50102" lon="6.26901">
        <ele>199.6</ele>
        <time>2023-11-27T11:07:06Z</time>
      </trkpt>
      <trkpt lat="43.501" lon="6.26914">
        <ele>199.2</ele>
        <time>2023-11-27T11:07:15Z</time>
      </trkpt>
      <trkpt lat="43.50098" lon="6.26927">
        <ele>199.1</ele>
        <time>2023-11-27T11:07:23Z</time>
      </trkpt>
      <trkpt lat="43.50097" lon="6.26941">
        <ele>198.9</ele>
        <time>2023-11-27T11:07:30Z</time>
      </trkpt>
      <trkpt lat="43.50092" lon="6.26953">
        <ele>198.4</ele>
        <time>2023-11-27T11:07:39Z</time>
      </trkpt>
      <trkpt lat="43.50086" lon="6.26962">
        <ele>197.2</ele>
        <time>2023-11-27T11:07:56Z</time>
      </trkpt>
      <trkpt lat="43.50079" lon="6.2697">
        <ele>196.2</ele>
        <time>2023-11-27T11:08:08Z</time>
      </trkpt>
      <trkpt lat="43.50071" lon="6.26979">
        <ele>195.3</ele>
        <time>2023-11-27T11:08:19Z</time>
      </trkpt>
      <trkpt lat="43.50065" lon="6.26989">
        <ele>194.6</ele>
        <time>2023-11-27T11:08:30Z</time>
      </trkpt>
      <trkpt lat="43.50058" lon="6.26997">
        <ele>194.1</ele>
        <time>2023-11-27T11:08:39Z</time>
      </trkpt>
      <trkpt lat="43.50053" lon="6.27009">
        <ele>193.6</ele>
        <time>2023-11-27T11:08:50Z</time>
      </trkpt>
      <trkpt lat="43.50047" lon="6.2702">
        <ele>192.9</ele>
        <time>2023-11-27T11:09:00Z</time>
      </trkpt>
      <trkpt lat="43.50043" lon="6.27031">
        <ele>192.4</ele>
        <time>2023-11-27T11:09:10Z</time>
      </trkpt>
      <trkpt lat="43.50038" lon="6.27043">
        <ele>191.9</ele>
        <time>2023-11-27T11:09:21Z</time>
      </trkpt>
      <trkpt lat="43.50033" lon="6.27054">
        <ele>191.7</ele>
        <time>2023-11-27T11:09:35Z</time>
      </trkpt>
      <trkpt lat="43.50027" lon="6.27063">
        <ele>191.3</ele>
        <time>2023-11-27T11:09:53Z</time>
      </trkpt>
      <trkpt lat="43.50032" lon="6.27053">
        <ele>190.6</ele>
        <time>2023-11-27T11:11:21Z</time>
      </trkpt>
      <trkpt lat="43.49905" lon="6.27199">
        <ele>191.9</ele>
        <time>2023-11-27T12:05:08Z</time>
      </trkpt>
      <trkpt lat="43.4992" lon="6.27197">
        <ele>193</ele>
        <time>2023-11-27T12:05:20Z</time>
      </trkpt>
      <trkpt lat="43.49929" lon="6.27186">
        <ele>194</ele>
        <time>2023-11-27T12:05:23Z</time>
      </trkpt>
      <trkpt lat="43.49938" lon="6.27181">
        <ele>193.9</ele>
        <time>2023-11-27T12:05:28Z</time>
      </trkpt>
      <trkpt lat="43.49944" lon="6.27171">
        <ele>193.9</ele>
        <time>2023-11-27T12:05:33Z</time>
      </trkpt>
      <trkpt lat="43.49948" lon="6.27159">
        <ele>194.1</ele>
        <time>2023-11-27T12:05:36Z</time>
      </trkpt>
      <trkpt lat="43.49952" lon="6.27148">
        <ele>194.4</ele>
        <time>2023-11-27T12:05:44Z</time>
      </trkpt>
      <trkpt lat="43.49958" lon="6.27138">
        <ele>190.4</ele>
        <time>2023-11-27T12:05:53Z</time>
      </trkpt>
      <trkpt lat="43.49965" lon="6.27127">
        <ele>195.6</ele>
        <time>2023-11-27T12:06:06Z</time>
      </trkpt>
      <trkpt lat="43.49961" lon="6.27139">
        <ele>193.6</ele>
        <time>2023-11-27T12:07:00Z</time>
      </trkpt>
      <trkpt lat="43.49956" lon="6.2715">
        <ele>193.1</ele>
        <time>2023-11-27T12:07:15Z</time>
      </trkpt>
      <trkpt lat="43.49949" lon="6.27159">
        <ele>192.7</ele>
        <time>2023-11-27T12:07:26Z</time>
      </trkpt>
      <trkpt lat="43.49943" lon="6.27169">
        <ele>192.1</ele>
        <time>2023-11-27T12:07:40Z</time>
      </trkpt>
      <trkpt lat="43.49938" lon="6.27179">
        <ele>191.7</ele>
        <time>2023-11-27T12:07:52Z</time>
      </trkpt>
      <trkpt lat="43.49931" lon="6.27188">
        <ele>191.6</ele>
        <time>2023-11-27T12:08:04Z</time>
      </trkpt>
      <trkpt lat="43.49923" lon="6.27195">
        <ele>191.3</ele>
        <time>2023-11-27T12:08:15Z</time>
      </trkpt>
      <trkpt lat="43.49915" lon="6.27187">
        <ele>190.7</ele>
        <time>2023-11-27T12:08:33Z</time>
      </trkpt>
      <trkpt lat="43.49909" lon="6.27176">
        <ele>190.7</ele>
        <time>2023-11-27T12:08:45Z</time>
      </trkpt>
      <trkpt lat="43.49904" lon="6.27165">
        <ele>190.6</ele>
        <time>2023-11-27T12:09:02Z</time>
      </trkpt>
      <trkpt lat="43.49897" lon="6.27156">
        <ele>190.5</ele>
        <time>2023-11-27T12:09:12Z</time>
      </trkpt>
      <trkpt lat="43.49891" lon="6.27146">
        <ele>190.5</ele>
        <time>2023-11-27T12:09:22Z</time>
      </trkpt>
      <trkpt lat="43.49884" lon="6.27137">
        <ele>190.5</ele>
        <time>2023-11-27T12:09:34Z</time>
      </trkpt>
      <trkpt lat="43.49879" lon="6.27127">
        <ele>190.5</ele>
        <time>2023-11-27T12:09:46Z</time>
      </trkpt>
      <trkpt lat="43.49872" lon="6.27116">
        <ele>191.1</ele>
        <time>2023-11-27T12:10:28Z</time>
      </trkpt>
      <trkpt lat="43.49865" lon="6.27107">
        <ele>191.4</ele>
        <time>2023-11-27T12:10:39Z</time>
      </trkpt>
      <trkpt lat="43.49858" lon="6.27099">
        <ele>191.1</ele>
        <time>2023-11-27T12:10:49Z</time>
      </trkpt>
      <trkpt lat="43.49851" lon="6.2709">
        <ele>191.2</ele>
        <time>2023-11-27T12:11:00Z</time>
      </trkpt>
      <trkpt lat="43.49844" lon="6.2708">
        <ele>191.8</ele>
        <time>2023-11-27T12:11:13Z</time>
      </trkpt>
      <trkpt lat="43.49837" lon="6.27071">
        <ele>192.9</ele>
        <time>2023-11-27T12:11:23Z</time>
      </trkpt>
      <trkpt lat="43.4983" lon="6.27063">
        <ele>193.5</ele>
        <time>2023-11-27T12:11:32Z</time>
      </trkpt>
      <trkpt lat="43.49821" lon="6.2706">
        <ele>193.5</ele>
        <time>2023-11-27T12:11:42Z</time>
      </trkpt>
      <trkpt lat="43.49811" lon="6.27062">
        <ele>194.3</ele>
        <time>2023-11-27T12:11:52Z</time>
      </trkpt>
      <trkpt lat="43.49802" lon="6.27066">
        <ele>195.2</ele>
        <time>2023-11-27T12:12:03Z</time>
      </trkpt>
      <trkpt lat="43.49792" lon="6.27069">
        <ele>194.6</ele>
        <time>2023-11-27T12:12:14Z</time>
      </trkpt>
      <trkpt lat="43.49783" lon="6.27069">
        <ele>194.8</ele>
        <time>2023-11-27T12:12:32Z</time>
      </trkpt>
      <trkpt lat="43.49773" lon="6.27069">
        <ele>195.8</ele>
        <time>2023-11-27T12:12:44Z</time>
      </trkpt>
      <trkpt lat="43.49764" lon="6.27072">
        <ele>197</ele>
        <time>2023-11-27T12:12:54Z</time>
      </trkpt>
      <trkpt lat="43.49755" lon="6.27076">
        <ele>197.7</ele>
        <time>2023-11-27T12:13:02Z</time>
      </trkpt>
      <trkpt lat="43.49746" lon="6.27081">
        <ele>198.4</ele>
        <time>2023-11-27T12:13:10Z</time>
      </trkpt>
      <trkpt lat="43.49737" lon="6.27084">
        <ele>199.2</ele>
        <time>2023-11-27T12:13:19Z</time>
      </trkpt>
      <trkpt lat="43.49728" lon="6.27089">
        <ele>199.6</ele>
        <time>2023-11-27T12:13:31Z</time>
      </trkpt>
      <trkpt lat="43.4972" lon="6.27093">
        <ele>200.2</ele>
        <time>2023-11-27T12:13:40Z</time>
      </trkpt>
      <trkpt lat="43.49711" lon="6.27088">
        <ele>201.6</ele>
        <time>2023-11-27T12:13:51Z</time>
      </trkpt>
      <trkpt lat="43.49705" lon="6.27078">
        <ele>203.3</ele>
        <time>2023-11-27T12:14:03Z</time>
      </trkpt>
      <trkpt lat="43.49699" lon="6.27068">
        <ele>204.3</ele>
        <time>2023-11-27T12:14:12Z</time>
      </trkpt>
      <trkpt lat="43.4969" lon="6.27063">
        <ele>206</ele>
        <time>2023-11-27T12:14:23Z</time>
      </trkpt>
      <trkpt lat="43.49681" lon="6.27067">
        <ele>208.6</ele>
        <time>2023-11-27T12:14:36Z</time>
      </trkpt>
      <trkpt lat="43.49672" lon="6.2707">
        <ele>209.1</ele>
        <time>2023-11-27T12:15:12Z</time>
      </trkpt>
      <trkpt lat="43.49663" lon="6.27071">
        <ele>209.1</ele>
        <time>2023-11-27T12:15:21Z</time>
      </trkpt>
      <trkpt lat="43.49653" lon="6.27072">
        <ele>209.6</ele>
        <time>2023-11-27T12:15:31Z</time>
      </trkpt>
      <trkpt lat="43.49644" lon="6.27074">
        <ele>210.1</ele>
        <time>2023-11-27T12:15:40Z</time>
      </trkpt>
      <trkpt lat="43.49634" lon="6.27075">
        <ele>210.4</ele>
        <time>2023-11-27T12:15:51Z</time>
      </trkpt>
      <trkpt lat="43.49633" lon="6.27088">
        <ele>209.6</ele>
        <time>2023-11-27T12:16:10Z</time>
      </trkpt>
      <trkpt lat="43.49639" lon="6.27097">
        <ele>208.4</ele>
        <time>2023-11-27T12:16:32Z</time>
      </trkpt>
      <trkpt lat="43.49642" lon="6.27109">
        <ele>208.1</ele>
        <time>2023-11-27T12:16:43Z</time>
      </trkpt>
      <trkpt lat="43.49642" lon="6.27123">
        <ele>207.3</ele>
        <time>2023-11-27T12:16:58Z</time>
      </trkpt>
      <trkpt lat="43.49645" lon="6.27135">
        <ele>206.5</ele>
        <time>2023-11-27T12:17:12Z</time>
      </trkpt>
      <trkpt lat="43.49649" lon="6.27148">
        <ele>206.1</ele>
        <time>2023-11-27T12:17:21Z</time>
      </trkpt>
      <trkpt lat="43.49654" lon="6.27159">
        <ele>205.8</ele>
        <time>2023-11-27T12:17:30Z</time>
      </trkpt>
      <trkpt lat="43.49658" lon="6.27171">
        <ele>205.4</ele>
        <time>2023-11-27T12:17:39Z</time>
      </trkpt>
      <trkpt lat="43.49661" lon="6.27183">
        <ele>204.8</ele>
        <time>2023-11-27T12:17:48Z</time>
      </trkpt>
      <trkpt lat="43.49663" lon="6.27196">
        <ele>204.3</ele>
        <time>2023-11-27T12:17:58Z</time>
      </trkpt>
      <trkpt lat="43.49664" lon="6.2721">
        <ele>204.1</ele>
        <time>2023-11-27T12:18:09Z</time>
      </trkpt>
      <trkpt lat="43.49662" lon="6.27222">
        <ele>203.7</ele>
        <time>2023-11-27T12:19:35Z</time>
      </trkpt>
      <trkpt lat="43.49665" lon="6.27235">
        <ele>203.2</ele>
        <time>2023-11-27T12:19:45Z</time>
      </trkpt>
      <trkpt lat="43.49669" lon="6.27246">
        <ele>202.9</ele>
        <time>2023-11-27T12:19:54Z</time>
      </trkpt>
      <trkpt lat="43.49672" lon="6.27259">
        <ele>202.5</ele>
        <time>2023-11-27T12:20:04Z</time>
      </trkpt>
      <trkpt lat="43.49675" lon="6.27271">
        <ele>202.1</ele>
        <time>2023-11-27T12:20:14Z</time>
      </trkpt>
      <trkpt lat="43.49678" lon="6.27283">
        <ele>201.6</ele>
        <time>2023-11-27T12:20:24Z</time>
      </trkpt>
      <trkpt lat="43.49682" lon="6.27295">
        <ele>201.1</ele>
        <time>2023-11-27T12:20:33Z</time>
      </trkpt>
      <trkpt lat="43.49685" lon="6.27308">
        <ele>200.7</ele>
        <time>2023-11-27T12:20:42Z</time>
      </trkpt>
      <trkpt lat="43.49687" lon="6.2732">
        <ele>201.5</ele>
        <time>2023-11-27T12:20:54Z</time>
      </trkpt>
      <trkpt lat="43.49688" lon="6.27333">
        <ele>201.7</ele>
        <time>2023-11-27T12:21:03Z</time>
      </trkpt>
      <trkpt lat="43.49687" lon="6.27346">
        <ele>201.6</ele>
        <time>2023-11-27T12:21:13Z</time>
      </trkpt>
      <trkpt lat="43.49682" lon="6.27357">
        <ele>201.4</ele>
        <time>2023-11-27T12:21:33Z</time>
      </trkpt>
      <trkpt lat="43.49673" lon="6.2736">
        <ele>201.9</ele>
        <time>2023-11-27T12:21:41Z</time>
      </trkpt>
      <trkpt lat="43.49664" lon="6.27358">
        <ele>204.6</ele>
        <time>2023-11-27T12:21:53Z</time>
      </trkpt>
      <trkpt lat="43.49654" lon="6.2736">
        <ele>204.3</ele>
        <time>2023-11-27T12:22:02Z</time>
      </trkpt>
      <trkpt lat="43.49645" lon="6.27363">
        <ele>203.3</ele>
        <time>2023-11-27T12:22:12Z</time>
      </trkpt>
      <trkpt lat="43.49637" lon="6.27368">
        <ele>202.8</ele>
        <time>2023-11-27T12:22:25Z</time>
      </trkpt>
      <trkpt lat="43.49627" lon="6.2737">
        <ele>201.9</ele>
        <time>2023-11-27T12:22:37Z</time>
      </trkpt>
      <trkpt lat="43.49619" lon="6.27372">
        <ele>201.5</ele>
        <time>2023-11-27T12:22:46Z</time>
      </trkpt>
      <trkpt lat="43.49609" lon="6.27371">
        <ele>198.5</ele>
        <time>2023-11-27T12:22:57Z</time>
      </trkpt>
      <trkpt lat="43.496" lon="6.27373">
        <ele>198.4</ele>
        <time>2023-11-27T12:23:13Z</time>
      </trkpt>
      <trkpt lat="43.49594" lon="6.27383">
        <ele>198.7</ele>
        <time>2023-11-27T12:23:41Z</time>
      </trkpt>
      <trkpt lat="43.49586" lon="6.27388">
        <ele>197.1</ele>
        <time>2023-11-27T12:24:13Z</time>
      </trkpt>
      <trkpt lat="43.4958" lon="6.27398">
        <ele>195.8</ele>
        <time>2023-11-27T12:24:26Z</time>
      </trkpt>
      <trkpt lat="43.49572" lon="6.27405">
        <ele>195.5</ele>
        <time>2023-11-27T12:24:48Z</time>
      </trkpt>
      <trkpt lat="43.49567" lon="6.27416">
        <ele>194.6</ele>
        <time>2023-11-27T12:24:59Z</time>
      </trkpt>
      <trkpt lat="43.49562" lon="6.27427">
        <ele>193.4</ele>
        <time>2023-11-27T12:25:20Z</time>
      </trkpt>
      <trkpt lat="43.49554" lon="6.27433">
        <ele>193</ele>
        <time>2023-11-27T12:25:30Z</time>
      </trkpt>
      <trkpt lat="43.49545" lon="6.27434">
        <ele>191.8</ele>
        <time>2023-11-27T12:25:41Z</time>
      </trkpt>
      <trkpt lat="43.49536" lon="6.27439">
        <ele>189.3</ele>
        <time>2023-11-27T12:26:01Z</time>
      </trkpt>
      <trkpt lat="43.49528" lon="6.27445">
        <ele>189.3</ele>
        <time>2023-11-27T12:26:12Z</time>
      </trkpt>
      <trkpt lat="43.49519" lon="6.27448">
        <ele>188.4</ele>
        <time>2023-11-27T12:26:22Z</time>
      </trkpt>
      <trkpt lat="43.49509" lon="6.27444">
        <ele>189.1</ele>
        <time>2023-11-27T12:26:33Z</time>
      </trkpt>
      <trkpt lat="43.49501" lon="6.2744">
        <ele>186.3</ele>
        <time>2023-11-27T12:26:41Z</time>
      </trkpt>
      <trkpt lat="43.49492" lon="6.27437">
        <ele>184.3</ele>
        <time>2023-11-27T12:26:52Z</time>
      </trkpt>
      <trkpt lat="43.49482" lon="6.27434">
        <ele>183.9</ele>
        <time>2023-11-27T12:27:03Z</time>
      </trkpt>
      <trkpt lat="43.49475" lon="6.27441">
        <ele>182.4</ele>
        <time>2023-11-27T12:27:14Z</time>
      </trkpt>
      <trkpt lat="43.49472" lon="6.27453">
        <ele>184</ele>
        <time>2023-11-27T12:27:31Z</time>
      </trkpt>
      <trkpt lat="43.49465" lon="6.27461">
        <ele>182.7</ele>
        <time>2023-11-27T12:27:38Z</time>
      </trkpt>
      <trkpt lat="43.49458" lon="6.2747">
        <ele>180.9</ele>
        <time>2023-11-27T12:27:48Z</time>
      </trkpt>
      <trkpt lat="43.49454" lon="6.27483">
        <ele>182.6</ele>
        <time>2023-11-27T12:27:59Z</time>
      </trkpt>
      <trkpt lat="43.4945" lon="6.27495">
        <ele>182.6</ele>
        <time>2023-11-27T12:28:09Z</time>
      </trkpt>
      <trkpt lat="43.49448" lon="6.27508">
        <ele>182.1</ele>
        <time>2023-11-27T12:28:19Z</time>
      </trkpt>
      <trkpt lat="43.49445" lon="6.2752">
        <ele>183.9</ele>
        <time>2023-11-27T12:28:29Z</time>
      </trkpt>
      <trkpt lat="43.4944" lon="6.27532">
        <ele>182.4</ele>
        <time>2023-11-27T12:28:42Z</time>
      </trkpt>
      <trkpt lat="43.49435" lon="6.27542">
        <ele>180</ele>
        <time>2023-11-27T12:28:55Z</time>
      </trkpt>
      <trkpt lat="43.49429" lon="6.27552">
        <ele>178.6</ele>
        <time>2023-11-27T12:29:06Z</time>
      </trkpt>
      <trkpt lat="43.49423" lon="6.27563">
        <ele>177.9</ele>
        <time>2023-11-27T12:29:18Z</time>
      </trkpt>
      <trkpt lat="43.49417" lon="6.27573">
        <ele>177.7</ele>
        <time>2023-11-27T12:29:26Z</time>
      </trkpt>
      <trkpt lat="43.49411" lon="6.27584">
        <ele>177.8</ele>
        <time>2023-11-27T12:29:35Z</time>
      </trkpt>
      <trkpt lat="43.49406" lon="6.27595">
        <ele>177.6</ele>
        <time>2023-11-27T12:29:44Z</time>
      </trkpt>
      <trkpt lat="43.49399" lon="6.27604">
        <ele>177.7</ele>
        <time>2023-11-27T12:29:58Z</time>
      </trkpt>
      <trkpt lat="43.49391" lon="6.27613">
        <ele>178.4</ele>
        <time>2023-11-27T12:30:07Z</time>
      </trkpt>
      <trkpt lat="43.49385" lon="6.27624">
        <ele>178.1</ele>
        <time>2023-11-27T12:30:16Z</time>
      </trkpt>
      <trkpt lat="43.4938" lon="6.27635">
        <ele>177.9</ele>
        <time>2023-11-27T12:30:25Z</time>
      </trkpt>
      <trkpt lat="43.49375" lon="6.27646">
        <ele>177.7</ele>
        <time>2023-11-27T12:30:33Z</time>
      </trkpt>
      <trkpt lat="43.49371" lon="6.27658">
        <ele>177.2</ele>
        <time>2023-11-27T12:30:42Z</time>
      </trkpt>
      <trkpt lat="43.49367" lon="6.2767">
        <ele>177.1</ele>
        <time>2023-11-27T12:30:51Z</time>
      </trkpt>
      <trkpt lat="43.49362" lon="6.27681">
        <ele>176.3</ele>
        <time>2023-11-27T12:31:02Z</time>
      </trkpt>
      <trkpt lat="43.49356" lon="6.2769">
        <ele>175.3</ele>
        <time>2023-11-27T12:31:13Z</time>
      </trkpt>
      <trkpt lat="43.49349" lon="6.27698">
        <ele>173.9</ele>
        <time>2023-11-27T12:31:24Z</time>
      </trkpt>
      <trkpt lat="43.49341" lon="6.27706">
        <ele>171.8</ele>
        <time>2023-11-27T12:31:36Z</time>
      </trkpt>
      <trkpt lat="43.49336" lon="6.27718">
        <ele>170.1</ele>
        <time>2023-11-27T12:31:48Z</time>
      </trkpt>
      <trkpt lat="43.49331" lon="6.27728">
        <ele>169.3</ele>
        <time>2023-11-27T12:31:58Z</time>
      </trkpt>
      <trkpt lat="43.49327" lon="6.2774">
        <ele>168.7</ele>
        <time>2023-11-27T12:32:16Z</time>
      </trkpt>
      <trkpt lat="43.49328" lon="6.27752">
        <ele>168.8</ele>
        <time>2023-11-27T12:32:25Z</time>
      </trkpt>
      <trkpt lat="43.4933" lon="6.27765">
        <ele>168.9</ele>
        <time>2023-11-27T12:32:34Z</time>
      </trkpt>
      <trkpt lat="43.49332" lon="6.27777">
        <ele>168.6</ele>
        <time>2023-11-27T12:32:43Z</time>
      </trkpt>
      <trkpt lat="43.49329" lon="6.27789">
        <ele>168.4</ele>
        <time>2023-11-27T12:32:54Z</time>
      </trkpt>
      <trkpt lat="43.49328" lon="6.27803">
        <ele>168.2</ele>
        <time>2023-11-27T12:33:04Z</time>
      </trkpt>
      <trkpt lat="43.49327" lon="6.27816">
        <ele>167.7</ele>
        <time>2023-11-27T12:33:14Z</time>
      </trkpt>
      <trkpt lat="43.49326" lon="6.27829">
        <ele>167.4</ele>
        <time>2023-11-27T12:33:24Z</time>
      </trkpt>
      <trkpt lat="43.49325" lon="6.27842">
        <ele>166.5</ele>
        <time>2023-11-27T12:33:34Z</time>
      </trkpt>
      <trkpt lat="43.49325" lon="6.27855">
        <ele>166.3</ele>
        <time>2023-11-27T12:33:44Z</time>
      </trkpt>
      <trkpt lat="43.49321" lon="6.27866">
        <ele>165.5</ele>
        <time>2023-11-27T12:33:55Z</time>
      </trkpt>
      <trkpt lat="43.49313" lon="6.27873">
        <ele>165</ele>
        <time>2023-11-27T12:34:10Z</time>
      </trkpt>
      <trkpt lat="43.49307" lon="6.27883">
        <ele>165.9</ele>
        <time>2023-11-27T12:34:24Z</time>
      </trkpt>
      <trkpt lat="43.49303" lon="6.27895">
        <ele>164.4</ele>
        <time>2023-11-27T12:35:25Z</time>
      </trkpt>
      <trkpt lat="43.49306" lon="6.27907">
        <ele>164.1</ele>
        <time>2023-11-27T12:35:52Z</time>
      </trkpt>
      <trkpt lat="43.4931" lon="6.27919">
        <ele>166.7</ele>
        <time>2023-11-27T12:36:06Z</time>
      </trkpt>
      <trkpt lat="43.49314" lon="6.2793">
        <ele>166.8</ele>
        <time>2023-11-27T12:36:24Z</time>
      </trkpt>
      <trkpt lat="43.49313" lon="6.27944">
        <ele>166.8</ele>
        <time>2023-11-27T12:36:57Z</time>
      </trkpt>
      <trkpt lat="43.49312" lon="6.27956">
        <ele>167.1</ele>
        <time>2023-11-27T12:37:11Z</time>
      </trkpt>
      <trkpt lat="43.49308" lon="6.27968">
        <ele>167.4</ele>
        <time>2023-11-27T12:37:32Z</time>
      </trkpt>
      <trkpt lat="43.49304" lon="6.2798">
        <ele>165.7</ele>
        <time>2023-11-27T12:37:52Z</time>
      </trkpt>
      <trkpt lat="43.49305" lon="6.27993">
        <ele>165.1</ele>
        <time>2023-11-27T12:38:05Z</time>
      </trkpt>
      <trkpt lat="43.49304" lon="6.28006">
        <ele>164.8</ele>
        <time>2023-11-27T12:38:23Z</time>
      </trkpt>
      <trkpt lat="43.49305" lon="6.28019">
        <ele>165.1</ele>
        <time>2023-11-27T12:38:41Z</time>
      </trkpt>
      <trkpt lat="43.49307" lon="6.28031">
        <ele>164.7</ele>
        <time>2023-11-27T12:38:53Z</time>
      </trkpt>
      <trkpt lat="43.49309" lon="6.28044">
        <ele>164.3</ele>
        <time>2023-11-27T12:39:09Z</time>
      </trkpt>
      <trkpt lat="43.4931" lon="6.28056">
        <ele>165</ele>
        <time>2023-11-27T12:39:29Z</time>
      </trkpt>
      <trkpt lat="43.49308" lon="6.28069">
        <ele>164.7</ele>
        <time>2023-11-27T12:40:02Z</time>
      </trkpt>
      <trkpt lat="43.49308" lon="6.28082">
        <ele>163.1</ele>
        <time>2023-11-27T12:40:30Z</time>
      </trkpt>
      <trkpt lat="43.49303" lon="6.28092">
        <ele>162.3</ele>
        <time>2023-11-27T12:40:48Z</time>
      </trkpt>
      <trkpt lat="43.49301" lon="6.28105">
        <ele>162.5</ele>
        <time>2023-11-27T12:41:02Z</time>
      </trkpt>
      <trkpt lat="43.49295" lon="6.28114">
        <ele>161</ele>
        <time>2023-11-27T12:41:21Z</time>
      </trkpt>
      <trkpt lat="43.49287" lon="6.28122">
        <ele>162</ele>
        <time>2023-11-27T12:41:44Z</time>
      </trkpt>
      <trkpt lat="43.4928" lon="6.2813">
        <ele>161.4</ele>
        <time>2023-11-27T12:42:16Z</time>
      </trkpt>
      <trkpt lat="43.49276" lon="6.28142">
        <ele>160.5</ele>
        <time>2023-11-27T12:43:37Z</time>
      </trkpt>
      <trkpt lat="43.4927" lon="6.28151">
        <ele>159</ele>
        <time>2023-11-27T12:44:22Z</time>
      </trkpt>
      <trkpt lat="43.49262" lon="6.28157">
        <ele>154.9</ele>
        <time>2023-11-27T12:44:57Z</time>
      </trkpt>
      <trkpt lat="43.49256" lon="6.28166">
        <ele>151.5</ele>
        <time>2023-11-27T12:45:21Z</time>
      </trkpt>
      <trkpt lat="43.49256" lon="6.2818">
        <ele>150.7</ele>
        <time>2023-11-27T12:45:33Z</time>
      </trkpt>
      <trkpt lat="43.49253" lon="6.28192">
        <ele>150.3</ele>
        <time>2023-11-27T12:45:53Z</time>
      </trkpt>
      <trkpt lat="43.49252" lon="6.28204">
        <ele>149.3</ele>
        <time>2023-11-27T12:46:07Z</time>
      </trkpt>
      <trkpt lat="43.49254" lon="6.28217">
        <ele>148.7</ele>
        <time>2023-11-27T12:46:18Z</time>
      </trkpt>
      <trkpt lat="43.49255" lon="6.2823">
        <ele>146.9</ele>
        <time>2023-11-27T12:46:30Z</time>
      </trkpt>
      <trkpt lat="43.49253" lon="6.28243">
        <ele>147.8</ele>
        <time>2023-11-27T12:46:42Z</time>
      </trkpt>
      <trkpt lat="43.49246" lon="6.28251">
        <ele>145.9</ele>
        <time>2023-11-27T12:47:07Z</time>
      </trkpt>
      <trkpt lat="43.49242" lon="6.28262">
        <ele>145.7</ele>
        <time>2023-11-27T12:47:25Z</time>
      </trkpt>
      <trkpt lat="43.49237" lon="6.28273">
        <ele>144.7</ele>
        <time>2023-11-27T12:47:34Z</time>
      </trkpt>
      <trkpt lat="43.49234" lon="6.28286">
        <ele>144.1</ele>
        <time>2023-11-27T12:47:45Z</time>
      </trkpt>
      <trkpt lat="43.49231" lon="6.28299">
        <ele>143.3</ele>
        <time>2023-11-27T12:47:57Z</time>
      </trkpt>
      <trkpt lat="43.49229" lon="6.28311">
        <ele>142.4</ele>
        <time>2023-11-27T12:48:12Z</time>
      </trkpt>
      <trkpt lat="43.49225" lon="6.28323">
        <ele>141.7</ele>
        <time>2023-11-27T12:48:23Z</time>
      </trkpt>
      <trkpt lat="43.49221" lon="6.28335">
        <ele>142.7</ele>
        <time>2023-11-27T12:49:30Z</time>
      </trkpt>
      <trkpt lat="43.49216" lon="6.28346">
        <ele>140</ele>
        <time>2023-11-27T12:49:47Z</time>
      </trkpt>
      <trkpt lat="43.49213" lon="6.28359">
        <ele>138.5</ele>
        <time>2023-11-27T12:50:59Z</time>
      </trkpt>
      <trkpt lat="43.49218" lon="6.2837">
        <ele>139.3</ele>
        <time>2023-11-27T12:51:52Z</time>
      </trkpt>
      <trkpt lat="43.49227" lon="6.28374">
        <ele>144.4</ele>
        <time>2023-11-27T12:52:16Z</time>
      </trkpt>
      <trkpt lat="43.49235" lon="6.28379">
        <ele>138.3</ele>
        <time>2023-11-27T12:52:50Z</time>
      </trkpt>
      <trkpt lat="43.49244" lon="6.28377">
        <ele>137.8</ele>
        <time>2023-11-27T12:53:09Z</time>
      </trkpt>
      <trkpt lat="43.49253" lon="6.28379">
        <ele>138.7</ele>
        <time>2023-11-27T12:53:37Z</time>
      </trkpt>
      <trkpt lat="43.49263" lon="6.28377">
        <ele>138.7</ele>
        <time>2023-11-27T12:53:59Z</time>
      </trkpt>
      <trkpt lat="43.49272" lon="6.28375">
        <ele>138.4</ele>
        <time>2023-11-27T12:54:24Z</time>
      </trkpt>
      <trkpt lat="43.49281" lon="6.28369">
        <ele>138.9</ele>
        <time>2023-11-27T12:54:40Z</time>
      </trkpt>
      <trkpt lat="43.49289" lon="6.28366">
        <ele>138.5</ele>
        <time>2023-11-27T12:55:00Z</time>
      </trkpt>
      <trkpt lat="43.49299" lon="6.28368">
        <ele>140.8</ele>
        <time>2023-11-27T12:55:09Z</time>
      </trkpt>
      <trkpt lat="43.49307" lon="6.28373">
        <ele>139.3</ele>
        <time>2023-11-27T12:55:21Z</time>
      </trkpt>
      <trkpt lat="43.49316" lon="6.28379">
        <ele>137.8</ele>
        <time>2023-11-27T12:55:35Z</time>
      </trkpt>
      <trkpt lat="43.49325" lon="6.28384">
        <ele>137.6</ele>
        <time>2023-11-27T12:55:48Z</time>
      </trkpt>
      <trkpt lat="43.49332" lon="6.28393">
        <ele>136.8</ele>
        <time>2023-11-27T12:56:02Z</time>
      </trkpt>
      <trkpt lat="43.49338" lon="6.28402">
        <ele>135.5</ele>
        <time>2023-11-27T12:56:22Z</time>
      </trkpt>
      <trkpt lat="43.49346" lon="6.28409">
        <ele>131.3</ele>
        <time>2023-11-27T12:59:19Z</time>
      </trkpt>
      <trkpt lat="43.49351" lon="6.2842">
        <ele>130.9</ele>
        <time>2023-11-27T12:59:35Z</time>
      </trkpt>
      <trkpt lat="43.49357" lon="6.28429">
        <ele>130.3</ele>
        <time>2023-11-27T12:59:46Z</time>
      </trkpt>
      <trkpt lat="43.49365" lon="6.28437">
        <ele>130.1</ele>
        <time>2023-11-27T12:59:56Z</time>
      </trkpt>
      <trkpt lat="43.49372" lon="6.28445">
        <ele>129.5</ele>
        <time>2023-11-27T13:00:07Z</time>
      </trkpt>
      <trkpt lat="43.49379" lon="6.28454">
        <ele>129.4</ele>
        <time>2023-11-27T13:00:31Z</time>
      </trkpt>
      <trkpt lat="43.49387" lon="6.2846">
        <ele>129.7</ele>
        <time>2023-11-27T13:00:42Z</time>
      </trkpt>
      <trkpt lat="43.49396" lon="6.28464">
        <ele>128.7</ele>
        <time>2023-11-27T13:00:53Z</time>
      </trkpt>
      <trkpt lat="43.49405" lon="6.28466">
        <ele>131.3</ele>
        <time>2023-11-27T13:01:05Z</time>
      </trkpt>
      <trkpt lat="43.49415" lon="6.28467">
        <ele>129.8</ele>
        <time>2023-11-27T13:01:17Z</time>
      </trkpt>
      <trkpt lat="43.49424" lon="6.28464">
        <ele>129.6</ele>
        <time>2023-11-27T13:01:33Z</time>
      </trkpt>
      <trkpt lat="43.49434" lon="6.28461">
        <ele>129.7</ele>
        <time>2023-11-27T13:01:42Z</time>
      </trkpt>
      <trkpt lat="43.49443" lon="6.28456">
        <ele>129.7</ele>
        <time>2023-11-27T13:01:53Z</time>
      </trkpt>
      <trkpt lat="43.49451" lon="6.28452">
        <ele>129.7</ele>
        <time>2023-11-27T13:02:01Z</time>
      </trkpt>
      <trkpt lat="43.49459" lon="6.28445">
        <ele>130.1</ele>
        <time>2023-11-27T13:02:11Z</time>
      </trkpt>
      <trkpt lat="43.49467" lon="6.28436">
        <ele>130.3</ele>
        <time>2023-11-27T13:02:21Z</time>
      </trkpt>
      <trkpt lat="43.49473" lon="6.28427">
        <ele>130.6</ele>
        <time>2023-11-27T13:02:31Z</time>
      </trkpt>
      <trkpt lat="43.49481" lon="6.2842">
        <ele>131.1</ele>
        <time>2023-11-27T13:02:42Z</time>
      </trkpt>
      <trkpt lat="43.49489" lon="6.28415">
        <ele>131.2</ele>
        <time>2023-11-27T13:02:52Z</time>
      </trkpt>
      <trkpt lat="43.49498" lon="6.2841">
        <ele>131.4</ele>
        <time>2023-11-27T13:03:02Z</time>
      </trkpt>
      <trkpt lat="43.49507" lon="6.28403">
        <ele>131.7</ele>
        <time>2023-11-27T13:03:10Z</time>
      </trkpt>
      <trkpt lat="43.49514" lon="6.28396">
        <ele>134.3</ele>
        <time>2023-11-27T13:03:48Z</time>
      </trkpt>
      <trkpt lat="43.49523" lon="6.28393">
        <ele>131.9</ele>
        <time>2023-11-27T13:04:09Z</time>
      </trkpt>
      <trkpt lat="43.49532" lon="6.2839">
        <ele>132.9</ele>
        <time>2023-11-27T13:04:36Z</time>
      </trkpt>
      <trkpt lat="43.4954" lon="6.28395">
        <ele>133</ele>
        <time>2023-11-27T13:04:48Z</time>
      </trkpt>
      <trkpt lat="43.49549" lon="6.28393">
        <ele>131.2</ele>
        <time>2023-11-27T13:05:08Z</time>
      </trkpt>
      <trkpt lat="43.49558" lon="6.28393">
        <ele>134</ele>
        <time>2023-11-27T13:05:20Z</time>
      </trkpt>
      <trkpt lat="43.49567" lon="6.28392">
        <ele>136.4</ele>
        <time>2023-11-27T13:05:35Z</time>
      </trkpt>
      <trkpt lat="43.49577" lon="6.28391">
        <ele>136</ele>
        <time>2023-11-27T13:06:23Z</time>
      </trkpt>
      <trkpt lat="43.49585" lon="6.28389">
        <ele>135.8</ele>
        <time>2023-11-27T13:07:31Z</time>
      </trkpt>
      <trkpt lat="43.49592" lon="6.28381">
        <ele>135.4</ele>
        <time>2023-11-27T13:08:05Z</time>
      </trkpt>
      <trkpt lat="43.49602" lon="6.28378">
        <ele>135.7</ele>
        <time>2023-11-27T13:08:23Z</time>
      </trkpt>
      <trkpt lat="43.4961" lon="6.28373">
        <ele>136.1</ele>
        <time>2023-11-27T13:08:38Z</time>
      </trkpt>
      <trkpt lat="43.49618" lon="6.28367">
        <ele>136.7</ele>
        <time>2023-11-27T13:08:49Z</time>
      </trkpt>
      <trkpt lat="43.49628" lon="6.2837">
        <ele>134.4</ele>
        <time>2023-11-27T13:09:01Z</time>
      </trkpt>
      <trkpt lat="43.49637" lon="6.28368">
        <ele>135</ele>
        <time>2023-11-27T13:09:14Z</time>
      </trkpt>
      <trkpt lat="43.49646" lon="6.28366">
        <ele>135</ele>
        <time>2023-11-27T13:09:31Z</time>
      </trkpt>
      <trkpt lat="43.49654" lon="6.28361">
        <ele>134.5</ele>
        <time>2023-11-27T13:09:53Z</time>
      </trkpt>
      <trkpt lat="43.49663" lon="6.28357">
        <ele>136.3</ele>
        <time>2023-11-27T13:10:24Z</time>
      </trkpt>
      <trkpt lat="43.49672" lon="6.28353">
        <ele>136.7</ele>
        <time>2023-11-27T13:10:41Z</time>
      </trkpt>
      <trkpt lat="43.4968" lon="6.28347">
        <ele>136.6</ele>
        <time>2023-11-27T13:10:56Z</time>
      </trkpt>
      <trkpt lat="43.49688" lon="6.28339">
        <ele>137.2</ele>
        <time>2023-11-27T13:11:06Z</time>
      </trkpt>
      <trkpt lat="43.49697" lon="6.28337">
        <ele>137.1</ele>
        <time>2023-11-27T13:11:16Z</time>
      </trkpt>
      <trkpt lat="43.49706" lon="6.28333">
        <ele>135.7</ele>
        <time>2023-11-27T13:11:26Z</time>
      </trkpt>
      <trkpt lat="43.49715" lon="6.28329">
        <ele>135.7</ele>
        <time>2023-11-27T13:11:35Z</time>
      </trkpt>
      <trkpt lat="43.49724" lon="6.28325">
        <ele>136.6</ele>
        <time>2023-11-27T13:11:45Z</time>
      </trkpt>
      <trkpt lat="43.49734" lon="6.28325">
        <ele>136.6</ele>
        <time>2023-11-27T13:11:56Z</time>
      </trkpt>
      <trkpt lat="43.49743" lon="6.28325">
        <ele>136.2</ele>
        <time>2023-11-27T13:12:09Z</time>
      </trkpt>
      <trkpt lat="43.49752" lon="6.28321">
        <ele>136.3</ele>
        <time>2023-11-27T13:12:23Z</time>
      </trkpt>
      <trkpt lat="43.49759" lon="6.28313">
        <ele>138.4</ele>
        <time>2023-11-27T13:12:37Z</time>
      </trkpt>
      <trkpt lat="43.49768" lon="6.2831">
        <ele>137.9</ele>
        <time>2023-11-27T13:12:51Z</time>
      </trkpt>
      <trkpt lat="43.49776" lon="6.28319">
        <ele>136.6</ele>
        <time>2023-11-27T13:13:11Z</time>
      </trkpt>
      <trkpt lat="43.49782" lon="6.28328">
        <ele>137.6</ele>
        <time>2023-11-27T13:13:35Z</time>
      </trkpt>
      <trkpt lat="43.49787" lon="6.28339">
        <ele>138.4</ele>
        <time>2023-11-27T13:13:45Z</time>
      </trkpt>
      <trkpt lat="43.49793" lon="6.28348">
        <ele>137.7</ele>
        <time>2023-11-27T13:14:09Z</time>
      </trkpt>
      <trkpt lat="43.49799" lon="6.28357">
        <ele>138.6</ele>
        <time>2023-11-27T13:14:54Z</time>
      </trkpt>
      <trkpt lat="43.49805" lon="6.28367">
        <ele>137.9</ele>
        <time>2023-11-27T13:15:27Z</time>
      </trkpt>
      <trkpt lat="43.49811" lon="6.28379">
        <ele>138.2</ele>
        <time>2023-11-27T13:15:39Z</time>
      </trkpt>
      <trkpt lat="43.49817" lon="6.28388">
        <ele>138.4</ele>
        <time>2023-11-27T13:15:50Z</time>
      </trkpt>
      <trkpt lat="43.49825" lon="6.28395">
        <ele>139.3</ele>
        <time>2023-11-27T13:16:01Z</time>
      </trkpt>
      <trkpt lat="43.49833" lon="6.28401">
        <ele>140.1</ele>
        <time>2023-11-27T13:16:10Z</time>
      </trkpt>
      <trkpt lat="43.49842" lon="6.28404">
        <ele>140.4</ele>
        <time>2023-11-27T13:16:20Z</time>
      </trkpt>
      <trkpt lat="43.49851" lon="6.284">
        <ele>140.3</ele>
        <time>2023-11-27T13:16:31Z</time>
      </trkpt>
      <trkpt lat="43.4986" lon="6.28398">
        <ele>141.1</ele>
        <time>2023-11-27T13:16:44Z</time>
      </trkpt>
      <trkpt lat="43.49869" lon="6.284">
        <ele>142.1</ele>
        <time>2023-11-27T13:16:53Z</time>
      </trkpt>
      <trkpt lat="43.49878" lon="6.28401">
        <ele>142.3</ele>
        <time>2023-11-27T13:17:10Z</time>
      </trkpt>
      <trkpt lat="43.49887" lon="6.28403">
        <ele>142.3</ele>
        <time>2023-11-27T13:17:19Z</time>
      </trkpt>
      <trkpt lat="43.49897" lon="6.28404">
        <ele>144</ele>
        <time>2023-11-27T13:17:40Z</time>
      </trkpt>
      <trkpt lat="43.49906" lon="6.28409">
        <ele>144.2</ele>
        <time>2023-11-27T13:18:27Z</time>
      </trkpt>
      <trkpt lat="43.49916" lon="6.28411">
        <ele>145.1</ele>
        <time>2023-11-27T13:18:40Z</time>
      </trkpt>
      <trkpt lat="43.49925" lon="6.28409">
        <ele>146.1</ele>
        <time>2023-11-27T13:18:56Z</time>
      </trkpt>
      <trkpt lat="43.49934" lon="6.28414">
        <ele>148.1</ele>
        <time>2023-11-27T13:19:15Z</time>
      </trkpt>
      <trkpt lat="43.49941" lon="6.28423">
        <ele>151</ele>
        <time>2023-11-27T13:19:40Z</time>
      </trkpt>
      <trkpt lat="43.4995" lon="6.28424">
        <ele>151.7</ele>
        <time>2023-11-27T13:20:06Z</time>
      </trkpt>
      <trkpt lat="43.49959" lon="6.28427">
        <ele>151</ele>
        <time>2023-11-27T13:20:29Z</time>
      </trkpt>
      <trkpt lat="43.49968" lon="6.28429">
        <ele>154.7</ele>
        <time>2023-11-27T13:20:46Z</time>
      </trkpt>
      <trkpt lat="43.49977" lon="6.28432">
        <ele>156.7</ele>
        <time>2023-11-27T13:21:00Z</time>
      </trkpt>
      <trkpt lat="43.49985" lon="6.28437">
        <ele>158.2</ele>
        <time>2023-11-27T13:21:16Z</time>
      </trkpt>
      <trkpt lat="43.49994" lon="6.28439">
        <ele>160</ele>
        <time>2023-11-27T13:21:40Z</time>
      </trkpt>
      <trkpt lat="43.50003" lon="6.28443">
        <ele>161.7</ele>
        <time>2023-11-27T13:23:11Z</time>
      </trkpt>
      <trkpt lat="43.50012" lon="6.28442">
        <ele>161.5</ele>
        <time>2023-11-27T13:23:20Z</time>
      </trkpt>
      <trkpt lat="43.50022" lon="6.28444">
        <ele>162</ele>
        <time>2023-11-27T13:23:28Z</time>
      </trkpt>
      <trkpt lat="43.50031" lon="6.28443">
        <ele>162.9</ele>
        <time>2023-11-27T13:23:41Z</time>
      </trkpt>
      <trkpt lat="43.50041" lon="6.28441">
        <ele>163.6</ele>
        <time>2023-11-27T13:23:55Z</time>
      </trkpt>
      <trkpt lat="43.5005" lon="6.2844">
        <ele>163.5</ele>
        <time>2023-11-27T13:24:08Z</time>
      </trkpt>
      <trkpt lat="43.50059" lon="6.2844">
        <ele>163.4</ele>
        <time>2023-11-27T13:24:20Z</time>
      </trkpt>
      <trkpt lat="43.50069" lon="6.2844">
        <ele>163.3</ele>
        <time>2023-11-27T13:24:33Z</time>
      </trkpt>
      <trkpt lat="43.50078" lon="6.28441">
        <ele>163.7</ele>
        <time>2023-11-27T13:25:00Z</time>
      </trkpt>
      <trkpt lat="43.50088" lon="6.28444">
        <ele>163.9</ele>
        <time>2023-11-27T13:25:17Z</time>
      </trkpt>
      <trkpt lat="43.50097" lon="6.28443">
        <ele>164.1</ele>
        <time>2023-11-27T13:25:26Z</time>
      </trkpt>
      <trkpt lat="43.50106" lon="6.28438">
        <ele>165.1</ele>
        <time>2023-11-27T13:25:39Z</time>
      </trkpt>
      <trkpt lat="43.50113" lon="6.28431">
        <ele>165.9</ele>
        <time>2023-11-27T13:25:51Z</time>
      </trkpt>
      <trkpt lat="43.50121" lon="6.28423">
        <ele>164.7</ele>
        <time>2023-11-27T13:26:03Z</time>
      </trkpt>
      <trkpt lat="43.50129" lon="6.28418">
        <ele>167.6</ele>
        <time>2023-11-27T13:26:12Z</time>
      </trkpt>
      <trkpt lat="43.50138" lon="6.28411">
        <ele>167.4</ele>
        <time>2023-11-27T13:26:32Z</time>
      </trkpt>
      <trkpt lat="43.50145" lon="6.28404">
        <ele>166.5</ele>
        <time>2023-11-27T13:26:49Z</time>
      </trkpt>
      <trkpt lat="43.50155" lon="6.284">
        <ele>166.1</ele>
        <time>2023-11-27T13:27:03Z</time>
      </trkpt>
      <trkpt lat="43.50164" lon="6.28395">
        <ele>166.8</ele>
        <time>2023-11-27T13:27:29Z</time>
      </trkpt>
      <trkpt lat="43.50172" lon="6.28389">
        <ele>166.9</ele>
        <time>2023-11-27T13:27:46Z</time>
      </trkpt>
      <trkpt lat="43.5018" lon="6.28384">
        <ele>166.7</ele>
        <time>2023-11-27T13:28:11Z</time>
      </trkpt>
      <trkpt lat="43.5019" lon="6.28387">
        <ele>166</ele>
        <time>2023-11-27T13:28:32Z</time>
      </trkpt>
      <trkpt lat="43.50199" lon="6.28387">
        <ele>167.2</ele>
        <time>2023-11-27T13:28:45Z</time>
      </trkpt>
      <trkpt lat="43.50207" lon="6.28393">
        <ele>170.3</ele>
        <time>2023-11-27T13:29:04Z</time>
      </trkpt>
      <trkpt lat="43.50216" lon="6.28392">
        <ele>173.2</ele>
        <time>2023-11-27T13:29:53Z</time>
      </trkpt>
      <trkpt lat="43.50225" lon="6.28394">
        <ele>173.8</ele>
        <time>2023-11-27T13:30:10Z</time>
      </trkpt>
      <trkpt lat="43.50235" lon="6.28397">
        <ele>174.3</ele>
        <time>2023-11-27T13:30:24Z</time>
      </trkpt>
      <trkpt lat="43.50244" lon="6.284">
        <ele>174.7</ele>
        <time>2023-11-27T13:30:36Z</time>
      </trkpt>
      <trkpt lat="43.50253" lon="6.28403">
        <ele>174.8</ele>
        <time>2023-11-27T13:30:46Z</time>
      </trkpt>
      <trkpt lat="43.50263" lon="6.28406">
        <ele>174.9</ele>
        <time>2023-11-27T13:30:56Z</time>
      </trkpt>
      <trkpt lat="43.50271" lon="6.28409">
        <ele>175.5</ele>
        <time>2023-11-27T13:31:17Z</time>
      </trkpt>
      <trkpt lat="43.5028" lon="6.28412">
        <ele>173.3</ele>
        <time>2023-11-27T13:31:52Z</time>
      </trkpt>
      <trkpt lat="43.50289" lon="6.28417">
        <ele>176.6</ele>
        <time>2023-11-27T13:32:01Z</time>
      </trkpt>
      <trkpt lat="43.50298" lon="6.28423">
        <ele>176.1</ele>
        <time>2023-11-27T13:32:11Z</time>
      </trkpt>
      <trkpt lat="43.50306" lon="6.28428">
        <ele>175.4</ele>
        <time>2023-11-27T13:32:20Z</time>
      </trkpt>
      <trkpt lat="43.50315" lon="6.28434">
        <ele>175.1</ele>
        <time>2023-11-27T13:32:30Z</time>
      </trkpt>
      <trkpt lat="43.50323" lon="6.28441">
        <ele>175.2</ele>
        <time>2023-11-27T13:32:39Z</time>
      </trkpt>
      <trkpt lat="43.50331" lon="6.28449">
        <ele>175.4</ele>
        <time>2023-11-27T13:32:49Z</time>
      </trkpt>
      <trkpt lat="43.50333" lon="6.28461">
        <ele>175.5</ele>
        <time>2023-11-27T13:32:58Z</time>
      </trkpt>
      <trkpt lat="43.50334" lon="6.28474">
        <ele>175.7</ele>
        <time>2023-11-27T13:33:07Z</time>
      </trkpt>
      <trkpt lat="43.50339" lon="6.28486">
        <ele>176</ele>
        <time>2023-11-27T13:33:17Z</time>
      </trkpt>
      <trkpt lat="43.50346" lon="6.28495">
        <ele>176.3</ele>
        <time>2023-11-27T13:33:28Z</time>
      </trkpt>
      <trkpt lat="43.50354" lon="6.28502">
        <ele>176.8</ele>
        <time>2023-11-27T13:33:38Z</time>
      </trkpt>
      <trkpt lat="43.50361" lon="6.2851">
        <ele>176.9</ele>
        <time>2023-11-27T13:33:50Z</time>
      </trkpt>
      <trkpt lat="43.50369" lon="6.28516">
        <ele>178.8</ele>
        <time>2023-11-27T13:34:01Z</time>
      </trkpt>
      <trkpt lat="43.50378" lon="6.28519">
        <ele>180.2</ele>
        <time>2023-11-27T13:34:16Z</time>
      </trkpt>
      <trkpt lat="43.50386" lon="6.28526">
        <ele>181.4</ele>
        <time>2023-11-27T13:34:27Z</time>
      </trkpt>
      <trkpt lat="43.50392" lon="6.28535">
        <ele>183.1</ele>
        <time>2023-11-27T13:35:12Z</time>
      </trkpt>
      <trkpt lat="43.50401" lon="6.2854">
        <ele>183.6</ele>
        <time>2023-11-27T13:35:33Z</time>
      </trkpt>
      <trkpt lat="43.5041" lon="6.28544">
        <ele>183.8</ele>
        <time>2023-11-27T13:35:43Z</time>
      </trkpt>
      <trkpt lat="43.50419" lon="6.28547">
        <ele>184.9</ele>
        <time>2023-11-27T13:35:58Z</time>
      </trkpt>
      <trkpt lat="43.50427" lon="6.28552">
        <ele>185.6</ele>
        <time>2023-11-27T13:36:08Z</time>
      </trkpt>
      <trkpt lat="43.50436" lon="6.28558">
        <ele>186.8</ele>
        <time>2023-11-27T13:36:31Z</time>
      </trkpt>
      <trkpt lat="43.50445" lon="6.28563">
        <ele>187.1</ele>
        <time>2023-11-27T13:36:42Z</time>
      </trkpt>
      <trkpt lat="43.50454" lon="6.28567">
        <ele>187.8</ele>
        <time>2023-11-27T13:36:53Z</time>
      </trkpt>
      <trkpt lat="43.50463" lon="6.28565">
        <ele>188.9</ele>
        <time>2023-11-27T13:37:07Z</time>
      </trkpt>
      <trkpt lat="43.50472" lon="6.28561">
        <ele>189.6</ele>
        <time>2023-11-27T13:37:18Z</time>
      </trkpt>
      <trkpt lat="43.50482" lon="6.28561">
        <ele>190.1</ele>
        <time>2023-11-27T13:37:30Z</time>
      </trkpt>
      <trkpt lat="43.50489" lon="6.2857">
        <ele>190.4</ele>
        <time>2023-11-27T13:37:42Z</time>
      </trkpt>
      <trkpt lat="43.50499" lon="6.28573">
        <ele>190.6</ele>
        <time>2023-11-27T13:37:55Z</time>
      </trkpt>
      <trkpt lat="43.50508" lon="6.28569">
        <ele>189.5</ele>
        <time>2023-11-27T13:38:26Z</time>
      </trkpt>
      <trkpt lat="43.50517" lon="6.28564">
        <ele>189.9</ele>
        <time>2023-11-27T13:38:43Z</time>
      </trkpt>
      <trkpt lat="43.50525" lon="6.28559">
        <ele>189.2</ele>
        <time>2023-11-27T13:38:59Z</time>
      </trkpt>
      <trkpt lat="43.50534" lon="6.28554">
        <ele>190.1</ele>
        <time>2023-11-27T13:39:11Z</time>
      </trkpt>
      <trkpt lat="43.50542" lon="6.28548">
        <ele>188.2</ele>
        <time>2023-11-27T13:39:38Z</time>
      </trkpt>
      <trkpt lat="43.5055" lon="6.28556">
        <ele>188</ele>
        <time>2023-11-27T13:40:43Z</time>
      </trkpt>
      <trkpt lat="43.50558" lon="6.28563">
        <ele>188.9</ele>
        <time>2023-11-27T13:40:53Z</time>
      </trkpt>
      <trkpt lat="43.50566" lon="6.28572">
        <ele>188.9</ele>
        <time>2023-11-27T13:41:04Z</time>
      </trkpt>
      <trkpt lat="43.50573" lon="6.2858">
        <ele>189.3</ele>
        <time>2023-11-27T13:41:14Z</time>
      </trkpt>
      <trkpt lat="43.5058" lon="6.28589">
        <ele>189.6</ele>
        <time>2023-11-27T13:41:24Z</time>
      </trkpt>
      <trkpt lat="43.50588" lon="6.28597">
        <ele>190</ele>
        <time>2023-11-27T13:41:34Z</time>
      </trkpt>
      <trkpt lat="43.50595" lon="6.28605">
        <ele>190.7</ele>
        <time>2023-11-27T13:43:43Z</time>
      </trkpt>
      <trkpt lat="43.506" lon="6.28616">
        <ele>190.8</ele>
        <time>2023-11-27T13:43:54Z</time>
      </trkpt>
      <trkpt lat="43.50605" lon="6.28627">
        <ele>191.2</ele>
        <time>2023-11-27T13:44:09Z</time>
      </trkpt>
      <trkpt lat="43.5061" lon="6.28638">
        <ele>191.7</ele>
        <time>2023-11-27T13:44:20Z</time>
      </trkpt>
      <trkpt lat="43.50615" lon="6.28649">
        <ele>192.1</ele>
        <time>2023-11-27T13:44:30Z</time>
      </trkpt>
      <trkpt lat="43.50621" lon="6.2866">
        <ele>192.4</ele>
        <time>2023-11-27T13:44:41Z</time>
      </trkpt>
      <trkpt lat="43.50626" lon="6.28671">
        <ele>192.7</ele>
        <time>2023-11-27T13:44:50Z</time>
      </trkpt>
      <trkpt lat="43.50631" lon="6.28681">
        <ele>193</ele>
        <time>2023-11-27T13:45:10Z</time>
      </trkpt>
      <trkpt lat="43.50638" lon="6.28689">
        <ele>193.1</ele>
        <time>2023-11-27T13:45:36Z</time>
      </trkpt>
      <trkpt lat="43.50645" lon="6.28698">
        <ele>193.1</ele>
        <time>2023-11-27T13:45:47Z</time>
      </trkpt>
      <trkpt lat="43.50653" lon="6.28706">
        <ele>193.3</ele>
        <time>2023-11-27T13:45:57Z</time>
      </trkpt>
      <trkpt lat="43.5066" lon="6.28716">
        <ele>193.3</ele>
        <time>2023-11-27T13:46:07Z</time>
      </trkpt>
      <trkpt lat="43.50665" lon="6.28726">
        <ele>193.5</ele>
        <time>2023-11-27T13:46:17Z</time>
      </trkpt>
      <trkpt lat="43.50667" lon="6.28739">
        <ele>193.6</ele>
        <time>2023-11-27T13:46:27Z</time>
      </trkpt>
      <trkpt lat="43.50673" lon="6.28749">
        <ele>192.7</ele>
        <time>2023-11-27T13:46:36Z</time>
      </trkpt>
      <trkpt lat="43.50678" lon="6.2876">
        <ele>190.4</ele>
        <time>2023-11-27T13:46:47Z</time>
      </trkpt>
      <trkpt lat="43.50677" lon="6.28773">
        <ele>193.6</ele>
        <time>2023-11-27T13:47:02Z</time>
      </trkpt>
      <trkpt lat="43.5068" lon="6.28785">
        <ele>193.7</ele>
        <time>2023-11-27T13:47:22Z</time>
      </trkpt>
      <trkpt lat="43.50684" lon="6.28797">
        <ele>193.5</ele>
        <time>2023-11-27T13:47:33Z</time>
      </trkpt>
      <trkpt lat="43.50686" lon="6.28809">
        <ele>192.6</ele>
        <time>2023-11-27T13:47:43Z</time>
      </trkpt>
      <trkpt lat="43.50685" lon="6.28822">
        <ele>192.3</ele>
        <time>2023-11-27T13:47:53Z</time>
      </trkpt>
      <trkpt lat="43.50683" lon="6.28835">
        <ele>192.2</ele>
        <time>2023-11-27T13:48:08Z</time>
      </trkpt>
      <trkpt lat="43.50683" lon="6.28848">
        <ele>192.1</ele>
        <time>2023-11-27T13:48:19Z</time>
      </trkpt>
      <trkpt lat="43.5068" lon="6.2886">
        <ele>192.1</ele>
        <time>2023-11-27T13:48:29Z</time>
      </trkpt>
      <trkpt lat="43.50674" lon="6.2887">
        <ele>192.2</ele>
        <time>2023-11-27T13:48:40Z</time>
      </trkpt>
      <trkpt lat="43.50664" lon="6.28867">
        <ele>192</ele>
        <time>2023-11-27T13:48:56Z</time>
      </trkpt>
      <trkpt lat="43.50657" lon="6.28859">
        <ele>190.9</ele>
        <time>2023-11-27T13:49:10Z</time>
      </trkpt>
      <trkpt lat="43.50661" lon="6.28847">
        <ele>190.1</ele>
        <time>2023-11-27T13:49:20Z</time>
      </trkpt>
      <trkpt lat="43.50662" lon="6.28834">
        <ele>189.5</ele>
        <time>2023-11-27T13:49:32Z</time>
      </trkpt>
      <trkpt lat="43.50661" lon="6.28833">
        <ele>185.8</ele>
        <time>2023-11-27T13:53:11Z</time>
      </trkpt>
    </trkseg>
  </trk>
</gpx>